<?xml version="1.0" encoding="UTF-8" standalone="no" ?>
<gpx xmlns="http://www.topografix.com/GPX/1/1" xmlns:xsi="http://www.w3.org/2001/XMLSchema-instance" xsi:schemaLocation="http://www.topografix.com/GPX/1/1 http://www.topografix.com/GPX/1/1/gpx.xsd" version="1.1" creator="VisuGPX - https://www.visugpx.com">
  <metadata>
    <name>Luz/ Col du Soulor /10.5</name>
    <desc><![CDATA[Moyenne 10.5 km/h]]></desc>
  </metadata>
  <trk>
    <name><![CDATA[Luz  / Col du Soulor_1]]></name>
    <extensions>
      <line xmlns="http://www.topografix.com/GPX/gpx_style/0/2">
        <color>0000FF</color>
        <width>4</width>
      </line>
    </extensions>
    <trkseg>
      <trkpt lat="42.87178" lon="-0.00322">
        <ele>716</ele>
        <time>2024-07-24T22:00:00.000Z</time>
      </trkpt>
      <trkpt lat="42.87194" lon="-0.00328">
        <ele>715.4</ele>
        <time>2024-07-24T22:00:04.917Z</time>
      </trkpt>
      <trkpt lat="42.87216" lon="-0.00348">
        <ele>713.2</ele>
        <time>2024-07-24T22:00:12.559Z</time>
        <extensions>
          <visugpx:TrkExtension xmlns:visugpx="https://www.visugpx.com/editgpx/">
            <visugpx:node>1</visugpx:node>
            </visugpx:TrkExtension>
        </extensions>
      </trkpt>
      <trkpt lat="42.87239" lon="-0.00332">
        <ele>713.4</ele>
        <time>2024-07-24T22:00:21.295Z</time>
      </trkpt>
      <trkpt lat="42.87245" lon="-0.00333">
        <ele>713.2</ele>
        <time>2024-07-24T22:00:23.103Z</time>
      </trkpt>
      <trkpt lat="42.87257" lon="-0.00315">
        <ele>713.2</ele>
        <time>2024-07-24T22:00:28.995Z</time>
      </trkpt>
      <trkpt lat="42.87283" lon="-0.00311">
        <ele>711.6</ele>
        <time>2024-07-24T22:00:36.559Z</time>
      </trkpt>
      <trkpt lat="42.87291" lon="-0.00301">
        <ele>711.7</ele>
        <time>2024-07-24T22:00:40.247Z</time>
      </trkpt>
      <trkpt lat="42.87298" lon="-0.00297">
        <ele>711.6</ele>
        <time>2024-07-24T22:00:42.655Z</time>
        <extensions>
          <visugpx:TrkExtension xmlns:visugpx="https://www.visugpx.com/editgpx/">
            <visugpx:node>2</visugpx:node>
            </visugpx:TrkExtension>
        </extensions>
      </trkpt>
      <trkpt lat="42.87312" lon="-0.00317">
        <ele>710.6</ele>
        <time>2024-07-24T22:00:48.515Z</time>
      </trkpt>
      <trkpt lat="42.87324" lon="-0.00325">
        <ele>710.3</ele>
        <time>2024-07-24T22:00:52.637Z</time>
      </trkpt>
      <trkpt lat="42.8733" lon="-0.00326">
        <ele>710.3</ele>
        <time>2024-07-24T22:00:54.634Z</time>
      </trkpt>
      <trkpt lat="42.87348" lon="-0.00326">
        <ele>709.7</ele>
        <time>2024-07-24T22:01:00.012Z</time>
      </trkpt>
      <trkpt lat="42.87421" lon="-0.00315">
        <ele>708.5</ele>
        <time>2024-07-24T22:01:23.098Z</time>
      </trkpt>
      <trkpt lat="42.87432" lon="-0.00316">
        <ele>708.1</ele>
        <time>2024-07-24T22:01:26.364Z</time>
        <extensions>
          <visugpx:TrkExtension xmlns:visugpx="https://www.visugpx.com/editgpx/">
            <visugpx:node>3</visugpx:node>
            </visugpx:TrkExtension>
        </extensions>
      </trkpt>
      <trkpt lat="42.8744" lon="-0.00321">
        <ele>707.6</ele>
        <time>2024-07-24T22:01:28.907Z</time>
      </trkpt>
      <trkpt lat="42.87448" lon="-0.0033">
        <ele>706.9</ele>
        <time>2024-07-24T22:01:31.905Z</time>
      </trkpt>
      <trkpt lat="42.87639" lon="-0.00611">
        <ele>694</ele>
        <time>2024-07-24T22:02:53.101Z</time>
        <extensions>
          <visugpx:TrkExtension xmlns:visugpx="https://www.visugpx.com/editgpx/">
            <visugpx:node>4</visugpx:node>
            </visugpx:TrkExtension>
        </extensions>
      </trkpt>
      <trkpt lat="42.8799" lon="-0.01121">
        <ele>673.3</ele>
        <time>2024-07-24T22:05:23.155Z</time>
      </trkpt>
      <trkpt lat="42.88014" lon="-0.01154">
        <ele>671.5</ele>
        <time>2024-07-24T22:05:33.004Z</time>
      </trkpt>
      <trkpt lat="42.8803" lon="-0.0117">
        <ele>670.7</ele>
        <time>2024-07-24T22:05:38.810Z</time>
      </trkpt>
      <trkpt lat="42.88054" lon="-0.01189">
        <ele>669.2</ele>
        <time>2024-07-24T22:05:46.831Z</time>
      </trkpt>
      <trkpt lat="42.88388" lon="-0.01445">
        <ele>654</ele>
        <time>2024-07-24T22:07:39.172Z</time>
      </trkpt>
      <trkpt lat="42.88508" lon="-0.01535">
        <ele>647.9</ele>
        <time>2024-07-24T22:08:18.756Z</time>
      </trkpt>
      <trkpt lat="42.88523" lon="-0.01551">
        <ele>646.6</ele>
        <time>2024-07-24T22:08:24.260Z</time>
      </trkpt>
      <trkpt lat="42.8853" lon="-0.01564">
        <ele>645.9</ele>
        <time>2024-07-24T22:08:27.677Z</time>
      </trkpt>
      <trkpt lat="42.88534" lon="-0.01582">
        <ele>645.1</ele>
        <time>2024-07-24T22:08:31.661Z</time>
      </trkpt>
      <trkpt lat="42.88538" lon="-0.0162">
        <ele>645.2</ele>
        <time>2024-07-24T22:08:41.057Z</time>
      </trkpt>
      <trkpt lat="42.88542" lon="-0.01634">
        <ele>645.7</ele>
        <time>2024-07-24T22:08:45.257Z</time>
        <extensions>
          <visugpx:TrkExtension xmlns:visugpx="https://www.visugpx.com/editgpx/">
            <visugpx:node>5</visugpx:node>
            </visugpx:TrkExtension>
        </extensions>
      </trkpt>
      <trkpt lat="42.88549" lon="-0.01646">
        <ele>645.9</ele>
        <time>2024-07-24T22:08:49.182Z</time>
      </trkpt>
      <trkpt lat="42.88565" lon="-0.01664">
        <ele>646.2</ele>
        <time>2024-07-24T22:08:56.348Z</time>
      </trkpt>
      <trkpt lat="42.88595" lon="-0.01692">
        <ele>646.9</ele>
        <time>2024-07-24T22:09:09.098Z</time>
      </trkpt>
      <trkpt lat="42.88778" lon="-0.01853">
        <ele>646.2</ele>
        <time>2024-07-24T22:10:20.325Z</time>
      </trkpt>
      <trkpt lat="42.88813" lon="-0.01885">
        <ele>645.1</ele>
        <time>2024-07-24T22:10:33.185Z</time>
      </trkpt>
      <trkpt lat="42.88829" lon="-0.01904">
        <ele>645</ele>
        <time>2024-07-24T22:10:40.091Z</time>
      </trkpt>
      <trkpt lat="42.88837" lon="-0.01915">
        <ele>644.6</ele>
        <time>2024-07-24T22:10:43.465Z</time>
      </trkpt>
      <trkpt lat="42.88851" lon="-0.0194">
        <ele>645.3</ele>
        <time>2024-07-24T22:10:51.843Z</time>
      </trkpt>
      <trkpt lat="42.88882" lon="-0.02003">
        <ele>647.5</ele>
        <time>2024-07-24T22:11:12.657Z</time>
      </trkpt>
      <trkpt lat="42.88912" lon="-0.02048">
        <ele>650.5</ele>
        <time>2024-07-24T22:11:30.937Z</time>
      </trkpt>
      <trkpt lat="42.88968" lon="-0.02102">
        <ele>642.7</ele>
        <time>2024-07-24T22:11:50.759Z</time>
      </trkpt>
      <trkpt lat="42.88995" lon="-0.02135">
        <ele>643.9</ele>
        <time>2024-07-24T22:12:04.046Z</time>
      </trkpt>
      <trkpt lat="42.89011" lon="-0.02162">
        <ele>641.3</ele>
        <time>2024-07-24T22:12:11.402Z</time>
      </trkpt>
      <trkpt lat="42.89088" lon="-0.02319">
        <ele>637.1</ele>
        <time>2024-07-24T22:12:53.128Z</time>
      </trkpt>
      <trkpt lat="42.89107" lon="-0.02346">
        <ele>635.2</ele>
        <time>2024-07-24T22:13:01.057Z</time>
      </trkpt>
      <trkpt lat="42.89122" lon="-0.02362">
        <ele>633.7</ele>
        <time>2024-07-24T22:13:06.561Z</time>
      </trkpt>
      <trkpt lat="42.89142" lon="-0.02378">
        <ele>633.5</ele>
        <time>2024-07-24T22:13:14.020Z</time>
      </trkpt>
      <trkpt lat="42.8925" lon="-0.02448">
        <ele>632.3</ele>
        <time>2024-07-24T22:13:52.326Z</time>
      </trkpt>
      <trkpt lat="42.8968" lon="-0.02712">
        <ele>626.2</ele>
        <time>2024-07-24T22:16:22.068Z</time>
        <extensions>
          <visugpx:TrkExtension xmlns:visugpx="https://www.visugpx.com/editgpx/">
            <visugpx:node>6</visugpx:node>
            </visugpx:TrkExtension>
        </extensions>
      </trkpt>
      <trkpt lat="42.89767" lon="-0.02767">
        <ele>624</ele>
        <time>2024-07-24T22:16:51.614Z</time>
      </trkpt>
      <trkpt lat="42.89809" lon="-0.02791">
        <ele>622.8</ele>
        <time>2024-07-24T22:17:05.503Z</time>
      </trkpt>
      <trkpt lat="42.89871" lon="-0.02823">
        <ele>622.6</ele>
        <time>2024-07-24T22:17:27.200Z</time>
      </trkpt>
      <trkpt lat="42.89887" lon="-0.02833">
        <ele>623</ele>
        <time>2024-07-24T22:17:33.441Z</time>
      </trkpt>
      <trkpt lat="42.89902" lon="-0.02844">
        <ele>622.8</ele>
        <time>2024-07-24T22:17:38.869Z</time>
      </trkpt>
      <trkpt lat="42.89945" lon="-0.02882">
        <ele>624.4</ele>
        <time>2024-07-24T22:17:57.536Z</time>
      </trkpt>
      <trkpt lat="42.90001" lon="-0.0292">
        <ele>620.7</ele>
        <time>2024-07-24T22:18:15.615Z</time>
      </trkpt>
      <trkpt lat="42.90049" lon="-0.02955">
        <ele>620.6</ele>
        <time>2024-07-24T22:18:33.493Z</time>
      </trkpt>
      <trkpt lat="42.90203" lon="-0.03072">
        <ele>614.8</ele>
        <time>2024-07-24T22:19:26.218Z</time>
      </trkpt>
      <trkpt lat="42.90256" lon="-0.0311">
        <ele>614.9</ele>
        <time>2024-07-24T22:19:46.099Z</time>
      </trkpt>
      <trkpt lat="42.90323" lon="-0.03146">
        <ele>619.3</ele>
        <time>2024-07-24T22:20:15.023Z</time>
      </trkpt>
      <trkpt lat="42.90332" lon="-0.03148">
        <ele>620</ele>
        <time>2024-07-24T22:20:18.884Z</time>
      </trkpt>
      <trkpt lat="42.90348" lon="-0.03147">
        <ele>619.5</ele>
        <time>2024-07-24T22:20:23.700Z</time>
      </trkpt>
      <trkpt lat="42.90372" lon="-0.03137">
        <ele>615.1</ele>
        <time>2024-07-24T22:20:30.954Z</time>
      </trkpt>
      <trkpt lat="42.90388" lon="-0.03136">
        <ele>614.3</ele>
        <time>2024-07-24T22:20:35.584Z</time>
      </trkpt>
      <trkpt lat="42.90397" lon="-0.03138">
        <ele>613.4</ele>
        <time>2024-07-24T22:20:38.220Z</time>
      </trkpt>
      <trkpt lat="42.90413" lon="-0.03148">
        <ele>614</ele>
        <time>2024-07-24T22:20:44.692Z</time>
      </trkpt>
      <trkpt lat="42.90438" lon="-0.03175">
        <ele>614</ele>
        <time>2024-07-24T22:20:55.224Z</time>
      </trkpt>
      <trkpt lat="42.90496" lon="-0.03283">
        <ele>611.9</ele>
        <time>2024-07-24T22:21:25.592Z</time>
      </trkpt>
      <trkpt lat="42.9055" lon="-0.03367">
        <ele>607.1</ele>
        <time>2024-07-24T22:21:49.258Z</time>
      </trkpt>
      <trkpt lat="42.90564" lon="-0.03394">
        <ele>606.5</ele>
        <time>2024-07-24T22:21:56.685Z</time>
      </trkpt>
      <trkpt lat="42.90588" lon="-0.03452">
        <ele>602.7</ele>
        <time>2024-07-24T22:22:10.790Z</time>
      </trkpt>
      <trkpt lat="42.90596" lon="-0.03463">
        <ele>602</ele>
        <time>2024-07-24T22:22:14.073Z</time>
      </trkpt>
      <trkpt lat="42.906" lon="-0.03465">
        <ele>601.5</ele>
        <time>2024-07-24T22:22:15.304Z</time>
      </trkpt>
      <trkpt lat="42.90605" lon="-0.03465">
        <ele>600.8</ele>
        <time>2024-07-24T22:22:16.750Z</time>
      </trkpt>
      <trkpt lat="42.90633" lon="-0.03455">
        <ele>603.7</ele>
        <time>2024-07-24T22:22:30.031Z</time>
      </trkpt>
      <trkpt lat="42.90644" lon="-0.03456">
        <ele>606.5</ele>
        <time>2024-07-24T22:22:39.125Z</time>
      </trkpt>
      <trkpt lat="42.90653" lon="-0.03461">
        <ele>608.5</ele>
        <time>2024-07-24T22:22:45.728Z</time>
      </trkpt>
      <trkpt lat="42.9068" lon="-0.03482">
        <ele>610.6</ele>
        <time>2024-07-24T22:22:58.484Z</time>
      </trkpt>
      <trkpt lat="42.90695" lon="-0.0349">
        <ele>611.9</ele>
        <time>2024-07-24T22:23:05.394Z</time>
      </trkpt>
      <trkpt lat="42.90722" lon="-0.03501">
        <ele>615.5</ele>
        <time>2024-07-24T22:23:19.653Z</time>
      </trkpt>
      <trkpt lat="42.90734" lon="-0.03508">
        <ele>617</ele>
        <time>2024-07-24T22:23:25.961Z</time>
      </trkpt>
      <trkpt lat="42.9076" lon="-0.0353">
        <ele>614.6</ele>
        <time>2024-07-24T22:23:34.804Z</time>
      </trkpt>
      <trkpt lat="42.90819" lon="-0.03574">
        <ele>613.9</ele>
        <time>2024-07-24T22:23:56.319Z</time>
      </trkpt>
      <trkpt lat="42.90834" lon="-0.03587">
        <ele>612.6</ele>
        <time>2024-07-24T22:24:01.455Z</time>
      </trkpt>
      <trkpt lat="42.90868" lon="-0.03621">
        <ele>608.4</ele>
        <time>2024-07-24T22:24:13.639Z</time>
      </trkpt>
      <trkpt lat="42.9088" lon="-0.0363">
        <ele>608.4</ele>
        <time>2024-07-24T22:24:18.162Z</time>
      </trkpt>
      <trkpt lat="42.90914" lon="-0.03648">
        <ele>610.7</ele>
        <time>2024-07-24T22:24:32.907Z</time>
      </trkpt>
      <trkpt lat="42.90943" lon="-0.0366">
        <ele>612.1</ele>
        <time>2024-07-24T22:24:44.497Z</time>
      </trkpt>
      <trkpt lat="42.90954" lon="-0.03662">
        <ele>613.1</ele>
        <time>2024-07-24T22:24:49.415Z</time>
      </trkpt>
      <trkpt lat="42.91005" lon="-0.03664">
        <ele>619.3</ele>
        <time>2024-07-24T22:25:14.662Z</time>
      </trkpt>
      <trkpt lat="42.91066" lon="-0.03672">
        <ele>622.3</ele>
        <time>2024-07-24T22:25:38.312Z</time>
      </trkpt>
      <trkpt lat="42.9109" lon="-0.03677">
        <ele>622.4</ele>
        <time>2024-07-24T22:25:46.436Z</time>
      </trkpt>
      <trkpt lat="42.91108" lon="-0.03684">
        <ele>620.7</ele>
        <time>2024-07-24T22:25:51.846Z</time>
      </trkpt>
      <trkpt lat="42.91139" lon="-0.03703">
        <ele>613.1</ele>
        <time>2024-07-24T22:26:01.669Z</time>
      </trkpt>
      <trkpt lat="42.91152" lon="-0.03709">
        <ele>611</ele>
        <time>2024-07-24T22:26:05.637Z</time>
      </trkpt>
      <trkpt lat="42.91176" lon="-0.03717">
        <ele>608.1</ele>
        <time>2024-07-24T22:26:12.778Z</time>
      </trkpt>
      <trkpt lat="42.91218" lon="-0.03735">
        <ele>602</ele>
        <time>2024-07-24T22:26:25.504Z</time>
        <extensions>
          <visugpx:TrkExtension xmlns:visugpx="https://www.visugpx.com/editgpx/">
            <visugpx:node>7</visugpx:node>
            </visugpx:TrkExtension>
        </extensions>
      </trkpt>
      <trkpt lat="42.91238" lon="-0.0374">
        <ele>601.2</ele>
        <time>2024-07-24T22:26:31.473Z</time>
      </trkpt>
      <trkpt lat="42.91254" lon="-0.03739">
        <ele>602.6</ele>
        <time>2024-07-24T22:26:38.505Z</time>
      </trkpt>
      <trkpt lat="42.91296" lon="-0.0372">
        <ele>611.8</ele>
        <time>2024-07-24T22:27:08.823Z</time>
      </trkpt>
      <trkpt lat="42.91337" lon="-0.03717">
        <ele>608.4</ele>
        <time>2024-07-24T22:27:20.693Z</time>
      </trkpt>
      <trkpt lat="42.91367" lon="-0.03702">
        <ele>614.6</ele>
        <time>2024-07-24T22:27:41.427Z</time>
      </trkpt>
      <trkpt lat="42.91382" lon="-0.03697">
        <ele>615.5</ele>
        <time>2024-07-24T22:27:47.571Z</time>
      </trkpt>
      <trkpt lat="42.91391" lon="-0.03696">
        <ele>615.1</ele>
        <time>2024-07-24T22:27:50.184Z</time>
      </trkpt>
      <trkpt lat="42.91402" lon="-0.03698">
        <ele>614.6</ele>
        <time>2024-07-24T22:27:53.392Z</time>
      </trkpt>
      <trkpt lat="42.91423" lon="-0.03707">
        <ele>611.5</ele>
        <time>2024-07-24T22:27:59.755Z</time>
      </trkpt>
      <trkpt lat="42.9153" lon="-0.03765">
        <ele>613.7</ele>
        <time>2024-07-24T22:28:40.123Z</time>
      </trkpt>
      <trkpt lat="42.91626" lon="-0.03814">
        <ele>621</ele>
        <time>2024-07-24T22:29:22.711Z</time>
      </trkpt>
      <trkpt lat="42.91638" lon="-0.03823">
        <ele>620.7</ele>
        <time>2024-07-24T22:29:26.943Z</time>
      </trkpt>
      <trkpt lat="42.91656" lon="-0.03845">
        <ele>615.1</ele>
        <time>2024-07-24T22:29:33.927Z</time>
      </trkpt>
      <trkpt lat="42.91711" lon="-0.03936">
        <ele>600.7</ele>
        <time>2024-07-24T22:29:58.906Z</time>
      </trkpt>
      <trkpt lat="42.91729" lon="-0.03964">
        <ele>596.7</ele>
        <time>2024-07-24T22:30:06.794Z</time>
      </trkpt>
      <trkpt lat="42.91742" lon="-0.03979">
        <ele>594.5</ele>
        <time>2024-07-24T22:30:11.714Z</time>
      </trkpt>
      <trkpt lat="42.91752" lon="-0.03986">
        <ele>594.6</ele>
        <time>2024-07-24T22:30:15.531Z</time>
      </trkpt>
      <trkpt lat="42.91759" lon="-0.03988">
        <ele>595.7</ele>
        <time>2024-07-24T22:30:19.513Z</time>
      </trkpt>
      <trkpt lat="42.91797" lon="-0.03988">
        <ele>605.3</ele>
        <time>2024-07-24T22:30:50.685Z</time>
      </trkpt>
      <trkpt lat="42.91811" lon="-0.03992">
        <ele>607</ele>
        <time>2024-07-24T22:30:57.695Z</time>
      </trkpt>
      <trkpt lat="42.91826" lon="-0.04004">
        <ele>606</ele>
        <time>2024-07-24T22:31:02.721Z</time>
      </trkpt>
      <trkpt lat="42.91853" lon="-0.04034">
        <ele>598.6</ele>
        <time>2024-07-24T22:31:12.784Z</time>
      </trkpt>
      <trkpt lat="42.91861" lon="-0.04039">
        <ele>597.5</ele>
        <time>2024-07-24T22:31:15.327Z</time>
      </trkpt>
      <trkpt lat="42.91874" lon="-0.0404">
        <ele>598.1</ele>
        <time>2024-07-24T22:31:20.305Z</time>
      </trkpt>
      <trkpt lat="42.91881" lon="-0.04038">
        <ele>599.4</ele>
        <time>2024-07-24T22:31:24.731Z</time>
      </trkpt>
      <trkpt lat="42.91915" lon="-0.04021">
        <ele>606.9</ele>
        <time>2024-07-24T22:31:49.464Z</time>
      </trkpt>
      <trkpt lat="42.91924" lon="-0.04018">
        <ele>608</ele>
        <time>2024-07-24T22:31:54.003Z</time>
      </trkpt>
      <trkpt lat="42.91938" lon="-0.04019">
        <ele>607</ele>
        <time>2024-07-24T22:31:58.056Z</time>
      </trkpt>
      <trkpt lat="42.91962" lon="-0.04026">
        <ele>604.4</ele>
        <time>2024-07-24T22:32:05.151Z</time>
      </trkpt>
      <trkpt lat="42.91974" lon="-0.04027">
        <ele>604.8</ele>
        <time>2024-07-24T22:32:09.561Z</time>
      </trkpt>
      <trkpt lat="42.91997" lon="-0.04023">
        <ele>613</ele>
        <time>2024-07-24T22:32:38.477Z</time>
      </trkpt>
      <trkpt lat="42.92004" lon="-0.04024">
        <ele>616.4</ele>
        <time>2024-07-24T22:32:50.685Z</time>
      </trkpt>
      <trkpt lat="42.92017" lon="-0.0403">
        <ele>623</ele>
        <time>2024-07-24T22:33:14.487Z</time>
      </trkpt>
      <trkpt lat="42.9203" lon="-0.04045">
        <ele>622.8</ele>
        <time>2024-07-24T22:33:19.912Z</time>
      </trkpt>
      <trkpt lat="42.92048" lon="-0.0407">
        <ele>616.3</ele>
        <time>2024-07-24T22:33:27.334Z</time>
      </trkpt>
      <trkpt lat="42.92053" lon="-0.04075">
        <ele>615.1</ele>
        <time>2024-07-24T22:33:29.125Z</time>
      </trkpt>
      <trkpt lat="42.92069" lon="-0.04085">
        <ele>612.5</ele>
        <time>2024-07-24T22:33:34.212Z</time>
      </trkpt>
      <trkpt lat="42.92082" lon="-0.04091">
        <ele>610.8</ele>
        <time>2024-07-24T22:33:38.179Z</time>
      </trkpt>
      <trkpt lat="42.92099" lon="-0.04095">
        <ele>608.2</ele>
        <time>2024-07-24T22:33:43.166Z</time>
      </trkpt>
      <trkpt lat="42.92152" lon="-0.041">
        <ele>596.6</ele>
        <time>2024-07-24T22:33:58.524Z</time>
      </trkpt>
      <trkpt lat="42.92162" lon="-0.04099">
        <ele>595.8</ele>
        <time>2024-07-24T22:34:01.423Z</time>
      </trkpt>
      <trkpt lat="42.92171" lon="-0.04096">
        <ele>597.5</ele>
        <time>2024-07-24T22:34:07.195Z</time>
      </trkpt>
      <trkpt lat="42.92212" lon="-0.04078">
        <ele>605.4</ele>
        <time>2024-07-24T22:34:34.018Z</time>
      </trkpt>
      <trkpt lat="42.92254" lon="-0.04076">
        <ele>595.7</ele>
        <time>2024-07-24T22:34:46.167Z</time>
      </trkpt>
      <trkpt lat="42.92287" lon="-0.04069">
        <ele>595.2</ele>
        <time>2024-07-24T22:34:56.708Z</time>
      </trkpt>
      <trkpt lat="42.92301" lon="-0.04072">
        <ele>590.9</ele>
        <time>2024-07-24T22:35:00.805Z</time>
      </trkpt>
      <trkpt lat="42.92334" lon="-0.04084">
        <ele>580.6</ele>
        <time>2024-07-24T22:35:10.677Z</time>
      </trkpt>
      <trkpt lat="42.9235" lon="-0.04087">
        <ele>580.2</ele>
        <time>2024-07-24T22:35:15.627Z</time>
      </trkpt>
      <trkpt lat="42.9236" lon="-0.04087">
        <ele>581.4</ele>
        <time>2024-07-24T22:35:20.549Z</time>
      </trkpt>
      <trkpt lat="42.92393" lon="-0.0408">
        <ele>593.6</ele>
        <time>2024-07-24T22:36:04.206Z</time>
      </trkpt>
      <trkpt lat="42.92406" lon="-0.04085">
        <ele>594.4</ele>
        <time>2024-07-24T22:36:09.598Z</time>
      </trkpt>
      <trkpt lat="42.92412" lon="-0.0409">
        <ele>592.8</ele>
        <time>2024-07-24T22:36:11.630Z</time>
      </trkpt>
      <trkpt lat="42.9245" lon="-0.04135">
        <ele>579</ele>
        <time>2024-07-24T22:36:26.170Z</time>
      </trkpt>
      <trkpt lat="42.9249" lon="-0.04172">
        <ele>574.9</ele>
        <time>2024-07-24T22:36:40.137Z</time>
      </trkpt>
      <trkpt lat="42.92522" lon="-0.04197">
        <ele>569.7</ele>
        <time>2024-07-24T22:36:50.794Z</time>
      </trkpt>
      <trkpt lat="42.92544" lon="-0.04211">
        <ele>565.2</ele>
        <time>2024-07-24T22:36:57.811Z</time>
      </trkpt>
      <trkpt lat="42.92562" lon="-0.04213">
        <ele>564.7</ele>
        <time>2024-07-24T22:37:03.298Z</time>
      </trkpt>
      <trkpt lat="42.92571" lon="-0.04211">
        <ele>564.9</ele>
        <time>2024-07-24T22:37:06.524Z</time>
      </trkpt>
      <trkpt lat="42.92578" lon="-0.04207">
        <ele>566.3</ele>
        <time>2024-07-24T22:37:11.270Z</time>
      </trkpt>
      <trkpt lat="42.92586" lon="-0.04199">
        <ele>569.3</ele>
        <time>2024-07-24T22:37:21.275Z</time>
      </trkpt>
      <trkpt lat="42.92605" lon="-0.04173">
        <ele>582.1</ele>
        <time>2024-07-24T22:38:07.929Z</time>
      </trkpt>
      <trkpt lat="42.92612" lon="-0.04166">
        <ele>584.4</ele>
        <time>2024-07-24T22:38:15.420Z</time>
      </trkpt>
      <trkpt lat="42.92623" lon="-0.0416">
        <ele>587.3</ele>
        <time>2024-07-24T22:38:24.832Z</time>
      </trkpt>
      <trkpt lat="42.92631" lon="-0.04159">
        <ele>587</ele>
        <time>2024-07-24T22:38:27.204Z</time>
      </trkpt>
      <trkpt lat="42.92686" lon="-0.04164">
        <ele>584.1</ele>
        <time>2024-07-24T22:38:43.139Z</time>
      </trkpt>
      <trkpt lat="42.927" lon="-0.04166">
        <ele>584.2</ele>
        <time>2024-07-24T22:38:47.893Z</time>
      </trkpt>
      <trkpt lat="42.92722" lon="-0.04172">
        <ele>583.5</ele>
        <time>2024-07-24T22:38:54.639Z</time>
      </trkpt>
      <trkpt lat="42.92777" lon="-0.04191">
        <ele>577.2</ele>
        <time>2024-07-24T22:39:11.039Z</time>
      </trkpt>
      <trkpt lat="42.92831" lon="-0.04218">
        <ele>577.6</ele>
        <time>2024-07-24T22:39:30.451Z</time>
      </trkpt>
      <trkpt lat="42.92853" lon="-0.04233">
        <ele>574.6</ele>
        <time>2024-07-24T22:39:37.560Z</time>
      </trkpt>
      <trkpt lat="42.92882" lon="-0.04261">
        <ele>568.6</ele>
        <time>2024-07-24T22:39:47.827Z</time>
      </trkpt>
      <trkpt lat="42.92902" lon="-0.04285">
        <ele>564.4</ele>
        <time>2024-07-24T22:39:55.523Z</time>
      </trkpt>
      <trkpt lat="42.92939" lon="-0.04336">
        <ele>558.2</ele>
        <time>2024-07-24T22:40:10.720Z</time>
      </trkpt>
      <trkpt lat="42.92964" lon="-0.04367">
        <ele>559.6</ele>
        <time>2024-07-24T22:40:23.438Z</time>
      </trkpt>
      <trkpt lat="42.92973" lon="-0.04384">
        <ele>556.9</ele>
        <time>2024-07-24T22:40:27.878Z</time>
      </trkpt>
      <trkpt lat="42.92986" lon="-0.04433">
        <ele>545.3</ele>
        <time>2024-07-24T22:40:38.910Z</time>
      </trkpt>
      <trkpt lat="42.9301" lon="-0.04492">
        <ele>535.9</ele>
        <time>2024-07-24T22:40:53.196Z</time>
      </trkpt>
      <trkpt lat="42.93022" lon="-0.04517">
        <ele>534.4</ele>
        <time>2024-07-24T22:40:59.524Z</time>
      </trkpt>
      <trkpt lat="42.93029" lon="-0.04529">
        <ele>533.5</ele>
        <time>2024-07-24T22:41:02.771Z</time>
      </trkpt>
      <trkpt lat="42.93067" lon="-0.0458">
        <ele>535.4</ele>
        <time>2024-07-24T22:41:22.464Z</time>
      </trkpt>
      <trkpt lat="42.93079" lon="-0.04593">
        <ele>534.8</ele>
        <time>2024-07-24T22:41:26.963Z</time>
      </trkpt>
      <trkpt lat="42.93089" lon="-0.04601">
        <ele>534.5</ele>
        <time>2024-07-24T22:41:30.503Z</time>
      </trkpt>
      <trkpt lat="42.93106" lon="-0.0461">
        <ele>534.4</ele>
        <time>2024-07-24T22:41:36.426Z</time>
      </trkpt>
      <trkpt lat="42.93113" lon="-0.04611">
        <ele>535.3</ele>
        <time>2024-07-24T22:41:39.989Z</time>
      </trkpt>
      <trkpt lat="42.93165" lon="-0.04607">
        <ele>542.4</ele>
        <time>2024-07-24T22:42:07.177Z</time>
      </trkpt>
      <trkpt lat="42.93205" lon="-0.04615">
        <ele>544.9</ele>
        <time>2024-07-24T22:42:23.457Z</time>
      </trkpt>
      <trkpt lat="42.93218" lon="-0.0462">
        <ele>545.4</ele>
        <time>2024-07-24T22:42:28.471Z</time>
      </trkpt>
      <trkpt lat="42.93265" lon="-0.04649">
        <ele>537.8</ele>
        <time>2024-07-24T22:42:43.380Z</time>
      </trkpt>
      <trkpt lat="42.93307" lon="-0.04667">
        <ele>539.1</ele>
        <time>2024-07-24T22:42:59.335Z</time>
      </trkpt>
      <trkpt lat="42.93319" lon="-0.04674">
        <ele>544.4</ele>
        <time>2024-07-24T22:43:19.287Z</time>
      </trkpt>
      <trkpt lat="42.93378" lon="-0.0472">
        <ele>553</ele>
        <time>2024-07-24T22:43:53.522Z</time>
      </trkpt>
      <trkpt lat="42.93401" lon="-0.0474">
        <ele>553.5</ele>
        <time>2024-07-24T22:44:03.060Z</time>
      </trkpt>
      <trkpt lat="42.93426" lon="-0.04767">
        <ele>552.3</ele>
        <time>2024-07-24T22:44:12.462Z</time>
      </trkpt>
      <trkpt lat="42.93438" lon="-0.04785">
        <ele>550.2</ele>
        <time>2024-07-24T22:44:17.614Z</time>
      </trkpt>
      <trkpt lat="42.9346" lon="-0.04847">
        <ele>525.5</ele>
        <time>2024-07-24T22:44:32.197Z</time>
      </trkpt>
      <trkpt lat="42.9347" lon="-0.04861">
        <ele>521.3</ele>
        <time>2024-07-24T22:44:36.337Z</time>
      </trkpt>
      <trkpt lat="42.93476" lon="-0.04866">
        <ele>520.8</ele>
        <time>2024-07-24T22:44:38.369Z</time>
      </trkpt>
      <trkpt lat="42.93485" lon="-0.0487">
        <ele>521</ele>
        <time>2024-07-24T22:44:41.709Z</time>
      </trkpt>
      <trkpt lat="42.935" lon="-0.0487">
        <ele>524.2</ele>
        <time>2024-07-24T22:44:52.209Z</time>
      </trkpt>
      <trkpt lat="42.93586" lon="-0.04847">
        <ele>526.4</ele>
        <time>2024-07-24T22:45:23.526Z</time>
      </trkpt>
      <trkpt lat="42.93597" lon="-0.04846">
        <ele>526.3</ele>
        <time>2024-07-24T22:45:27.069Z</time>
      </trkpt>
      <trkpt lat="42.93644" lon="-0.04849">
        <ele>523.2</ele>
        <time>2024-07-24T22:45:40.671Z</time>
      </trkpt>
      <trkpt lat="42.93658" lon="-0.04854">
        <ele>522.4</ele>
        <time>2024-07-24T22:45:44.854Z</time>
      </trkpt>
      <trkpt lat="42.93664" lon="-0.04858">
        <ele>520.7</ele>
        <time>2024-07-24T22:45:46.784Z</time>
      </trkpt>
      <trkpt lat="42.93675" lon="-0.0487">
        <ele>518.9</ele>
        <time>2024-07-24T22:45:50.854Z</time>
      </trkpt>
      <trkpt lat="42.93684" lon="-0.04885">
        <ele>516.2</ele>
        <time>2024-07-24T22:45:54.959Z</time>
      </trkpt>
      <trkpt lat="42.93694" lon="-0.04909">
        <ele>512.1</ele>
        <time>2024-07-24T22:46:00.803Z</time>
      </trkpt>
      <trkpt lat="42.93703" lon="-0.04926">
        <ele>511</ele>
        <time>2024-07-24T22:46:05.243Z</time>
      </trkpt>
      <trkpt lat="42.93722" lon="-0.04945">
        <ele>510.8</ele>
        <time>2024-07-24T22:46:12.823Z</time>
      </trkpt>
      <trkpt lat="42.93749" lon="-0.04962">
        <ele>512.6</ele>
        <time>2024-07-24T22:46:24.744Z</time>
      </trkpt>
      <trkpt lat="42.93851" lon="-0.05016">
        <ele>517.8</ele>
        <time>2024-07-24T22:47:06.767Z</time>
      </trkpt>
      <trkpt lat="42.93883" lon="-0.05036">
        <ele>517.5</ele>
        <time>2024-07-24T22:47:18.094Z</time>
      </trkpt>
      <trkpt lat="42.93894" lon="-0.05048">
        <ele>516.5</ele>
        <time>2024-07-24T22:47:22.163Z</time>
      </trkpt>
      <trkpt lat="42.93907" lon="-0.05066">
        <ele>514.7</ele>
        <time>2024-07-24T22:47:27.515Z</time>
      </trkpt>
      <trkpt lat="42.93926" lon="-0.05096">
        <ele>513.5</ele>
        <time>2024-07-24T22:47:35.990Z</time>
      </trkpt>
      <trkpt lat="42.93931" lon="-0.05108">
        <ele>512.5</ele>
        <time>2024-07-24T22:47:38.912Z</time>
      </trkpt>
      <trkpt lat="42.9394" lon="-0.0514">
        <ele>509.4</ele>
        <time>2024-07-24T22:47:46.167Z</time>
      </trkpt>
      <trkpt lat="42.93948" lon="-0.05187">
        <ele>507.1</ele>
        <time>2024-07-24T22:47:56.379Z</time>
      </trkpt>
      <trkpt lat="42.93957" lon="-0.05226">
        <ele>505.2</ele>
        <time>2024-07-24T22:48:05.033Z</time>
      </trkpt>
      <trkpt lat="42.93964" lon="-0.05248">
        <ele>503.8</ele>
        <time>2024-07-24T22:48:10.110Z</time>
      </trkpt>
      <trkpt lat="42.93977" lon="-0.05283">
        <ele>502.4</ele>
        <time>2024-07-24T22:48:18.416Z</time>
      </trkpt>
      <trkpt lat="42.93988" lon="-0.05306">
        <ele>501.1</ele>
        <time>2024-07-24T22:48:24.230Z</time>
      </trkpt>
      <trkpt lat="42.93999" lon="-0.05319">
        <ele>500.5</ele>
        <time>2024-07-24T22:48:28.477Z</time>
      </trkpt>
      <trkpt lat="42.94006" lon="-0.05324">
        <ele>500.2</ele>
        <time>2024-07-24T22:48:30.805Z</time>
        <extensions>
          <visugpx:TrkExtension xmlns:visugpx="https://www.visugpx.com/editgpx/">
            <visugpx:node>8</visugpx:node>
            </visugpx:TrkExtension>
        </extensions>
      </trkpt>
      <trkpt lat="42.9402" lon="-0.0533">
        <ele>499.5</ele>
        <time>2024-07-24T22:48:35.046Z</time>
      </trkpt>
      <trkpt lat="42.94039" lon="-0.05329">
        <ele>499</ele>
        <time>2024-07-24T22:48:40.848Z</time>
      </trkpt>
      <trkpt lat="42.94047" lon="-0.05325">
        <ele>499.1</ele>
        <time>2024-07-24T22:48:43.767Z</time>
      </trkpt>
      <trkpt lat="42.94054" lon="-0.0532">
        <ele>499.5</ele>
        <time>2024-07-24T22:48:46.832Z</time>
      </trkpt>
      <trkpt lat="42.9409" lon="-0.05278">
        <ele>498.5</ele>
        <time>2024-07-24T22:49:01.501Z</time>
      </trkpt>
      <trkpt lat="42.94131" lon="-0.05235">
        <ele>496.8</ele>
        <time>2024-07-24T22:49:16.966Z</time>
      </trkpt>
      <trkpt lat="42.94149" lon="-0.05221">
        <ele>496.4</ele>
        <time>2024-07-24T22:49:23.419Z</time>
      </trkpt>
      <trkpt lat="42.94158" lon="-0.05215">
        <ele>497.8</ele>
        <time>2024-07-24T22:49:28.714Z</time>
      </trkpt>
      <trkpt lat="42.94174" lon="-0.05211">
        <ele>498.6</ele>
        <time>2024-07-24T22:49:34.996Z</time>
      </trkpt>
      <trkpt lat="42.94181" lon="-0.05211">
        <ele>499.2</ele>
        <time>2024-07-24T22:49:38.051Z</time>
      </trkpt>
      <trkpt lat="42.94199" lon="-0.05216">
        <ele>500.7</ele>
        <time>2024-07-24T22:49:45.959Z</time>
      </trkpt>
      <trkpt lat="42.94219" lon="-0.05231">
        <ele>501.1</ele>
        <time>2024-07-24T22:49:53.919Z</time>
      </trkpt>
      <trkpt lat="42.94269" lon="-0.05287">
        <ele>503.9</ele>
        <time>2024-07-24T22:50:18.417Z</time>
      </trkpt>
      <trkpt lat="42.94278" lon="-0.05295">
        <ele>502.7</ele>
        <time>2024-07-24T22:50:21.521Z</time>
      </trkpt>
      <trkpt lat="42.94372" lon="-0.05354">
        <ele>499.4</ele>
        <time>2024-07-24T22:50:52.562Z</time>
      </trkpt>
      <trkpt lat="42.94389" lon="-0.05367">
        <ele>498.6</ele>
        <time>2024-07-24T22:50:58.252Z</time>
      </trkpt>
      <trkpt lat="42.94406" lon="-0.05383">
        <ele>499.8</ele>
        <time>2024-07-24T22:51:06.463Z</time>
      </trkpt>
      <trkpt lat="42.94455" lon="-0.05436">
        <ele>499.6</ele>
        <time>2024-07-24T22:51:26.910Z</time>
      </trkpt>
      <trkpt lat="42.94526" lon="-0.05525">
        <ele>496.5</ele>
        <time>2024-07-24T22:51:55.801Z</time>
      </trkpt>
      <trkpt lat="42.94599" lon="-0.0561">
        <ele>495.2</ele>
        <time>2024-07-24T22:52:26.207Z</time>
      </trkpt>
      <trkpt lat="42.94649" lon="-0.05665">
        <ele>495</ele>
        <time>2024-07-24T22:52:47.214Z</time>
      </trkpt>
      <trkpt lat="42.94664" lon="-0.05685">
        <ele>493.6</ele>
        <time>2024-07-24T22:52:53.273Z</time>
      </trkpt>
      <trkpt lat="42.94673" lon="-0.057">
        <ele>494.6</ele>
        <time>2024-07-24T22:52:59.157Z</time>
      </trkpt>
      <trkpt lat="42.94688" lon="-0.05734">
        <ele>494.3</ele>
        <time>2024-07-24T22:53:08.459Z</time>
      </trkpt>
      <trkpt lat="42.94702" lon="-0.05788">
        <ele>498.6</ele>
        <time>2024-07-24T22:53:27.861Z</time>
      </trkpt>
      <trkpt lat="42.94719" lon="-0.05876">
        <ele>490.9</ele>
        <time>2024-07-24T22:53:47.120Z</time>
      </trkpt>
      <trkpt lat="42.94745" lon="-0.05949">
        <ele>488.8</ele>
        <time>2024-07-24T22:54:04.771Z</time>
      </trkpt>
      <trkpt lat="42.94753" lon="-0.05967">
        <ele>489.4</ele>
        <time>2024-07-24T22:54:10.529Z</time>
      </trkpt>
      <trkpt lat="42.94761" lon="-0.05984">
        <ele>490.1</ele>
        <time>2024-07-24T22:54:16.208Z</time>
      </trkpt>
      <trkpt lat="42.94809" lon="-0.06062">
        <ele>489.9</ele>
        <time>2024-07-24T22:54:40.649Z</time>
      </trkpt>
      <trkpt lat="42.94849" lon="-0.06138">
        <ele>494.1</ele>
        <time>2024-07-24T22:55:08.191Z</time>
      </trkpt>
      <trkpt lat="42.94893" lon="-0.0623">
        <ele>485.8</ele>
        <time>2024-07-24T22:55:31.445Z</time>
      </trkpt>
      <trkpt lat="42.94934" lon="-0.06301">
        <ele>484.9</ele>
        <time>2024-07-24T22:55:52.426Z</time>
      </trkpt>
      <trkpt lat="42.94955" lon="-0.06344">
        <ele>484.8</ele>
        <time>2024-07-24T22:56:04.826Z</time>
      </trkpt>
      <trkpt lat="42.94985" lon="-0.06423">
        <ele>485.8</ele>
        <time>2024-07-24T22:56:27.400Z</time>
      </trkpt>
      <trkpt lat="42.94993" lon="-0.06448">
        <ele>481.1</ele>
        <time>2024-07-24T22:56:33.174Z</time>
      </trkpt>
      <trkpt lat="42.95041" lon="-0.06676">
        <ele>486.3</ele>
        <time>2024-07-24T22:57:36.195Z</time>
      </trkpt>
      <trkpt lat="42.95052" lon="-0.06717">
        <ele>480.9</ele>
        <time>2024-07-24T22:57:45.435Z</time>
      </trkpt>
      <trkpt lat="42.95057" lon="-0.06729">
        <ele>479.8</ele>
        <time>2024-07-24T22:57:48.357Z</time>
      </trkpt>
      <trkpt lat="42.9507" lon="-0.06745">
        <ele>479.6</ele>
        <time>2024-07-24T22:57:53.939Z</time>
      </trkpt>
      <trkpt lat="42.95075" lon="-0.06736">
        <ele>479.9</ele>
        <time>2024-07-24T22:57:57.002Z</time>
      </trkpt>
      <trkpt lat="42.95082" lon="-0.0673">
        <ele>480</ele>
        <time>2024-07-24T22:57:59.837Z</time>
      </trkpt>
      <trkpt lat="42.95086" lon="-0.06729">
        <ele>479.8</ele>
        <time>2024-07-24T22:58:01.012Z</time>
      </trkpt>
      <trkpt lat="42.95095" lon="-0.0673">
        <ele>479.3</ele>
        <time>2024-07-24T22:58:03.623Z</time>
      </trkpt>
      <trkpt lat="42.95102" lon="-0.06736">
        <ele>479</ele>
        <time>2024-07-24T22:58:06.070Z</time>
      </trkpt>
      <trkpt lat="42.95104" lon="-0.0674">
        <ele>479</ele>
        <time>2024-07-24T22:58:07.242Z</time>
      </trkpt>
      <trkpt lat="42.95107" lon="-0.06751">
        <ele>479.1</ele>
        <time>2024-07-24T22:58:10.185Z</time>
      </trkpt>
      <trkpt lat="42.95106" lon="-0.06762">
        <ele>478.8</ele>
        <time>2024-07-24T22:58:12.583Z</time>
      </trkpt>
      <trkpt lat="42.95101" lon="-0.06772">
        <ele>478.6</ele>
        <time>2024-07-24T22:58:15.318Z</time>
      </trkpt>
      <trkpt lat="42.9509" lon="-0.06779">
        <ele>478.7</ele>
        <time>2024-07-24T22:58:19.430Z</time>
      </trkpt>
      <trkpt lat="42.951" lon="-0.06811">
        <ele>478.6</ele>
        <time>2024-07-24T22:58:27.744Z</time>
      </trkpt>
      <trkpt lat="42.95126" lon="-0.06858">
        <ele>477.5</ele>
        <time>2024-07-24T22:58:40.930Z</time>
      </trkpt>
      <trkpt lat="42.95159" lon="-0.0695">
        <ele>479.4</ele>
        <time>2024-07-24T22:59:07.749Z</time>
      </trkpt>
      <trkpt lat="42.9517" lon="-0.06965">
        <ele>480.8</ele>
        <time>2024-07-24T22:59:14.635Z</time>
      </trkpt>
      <trkpt lat="42.9518" lon="-0.06973">
        <ele>481.2</ele>
        <time>2024-07-24T22:59:18.903Z</time>
      </trkpt>
      <trkpt lat="42.95192" lon="-0.06979">
        <ele>482.5</ele>
        <time>2024-07-24T22:59:24.799Z</time>
      </trkpt>
      <trkpt lat="42.95206" lon="-0.06984">
        <ele>482.8</ele>
        <time>2024-07-24T22:59:29.899Z</time>
      </trkpt>
      <trkpt lat="42.95217" lon="-0.06986">
        <ele>481.5</ele>
        <time>2024-07-24T22:59:33.107Z</time>
      </trkpt>
      <trkpt lat="42.95244" lon="-0.06988">
        <ele>480.3</ele>
        <time>2024-07-24T22:59:40.928Z</time>
      </trkpt>
      <trkpt lat="42.95276" lon="-0.07001">
        <ele>476.8</ele>
        <time>2024-07-24T22:59:50.579Z</time>
      </trkpt>
      <trkpt lat="42.95317" lon="-0.07021">
        <ele>476.6</ele>
        <time>2024-07-24T23:00:04.761Z</time>
      </trkpt>
      <trkpt lat="42.95413" lon="-0.07082">
        <ele>479.2</ele>
        <time>2024-07-24T23:00:42.532Z</time>
      </trkpt>
      <trkpt lat="42.95456" lon="-0.07117">
        <ele>481</ele>
        <time>2024-07-24T23:01:01.051Z</time>
      </trkpt>
      <trkpt lat="42.95472" lon="-0.07132">
        <ele>480.8</ele>
        <time>2024-07-24T23:01:07.263Z</time>
      </trkpt>
      <trkpt lat="42.95488" lon="-0.07149">
        <ele>481.3</ele>
        <time>2024-07-24T23:01:14.496Z</time>
      </trkpt>
      <trkpt lat="42.95502" lon="-0.07167">
        <ele>481</ele>
        <time>2024-07-24T23:01:20.552Z</time>
      </trkpt>
      <trkpt lat="42.95582" lon="-0.07283">
        <ele>484</ele>
        <time>2024-07-24T23:02:02.321Z</time>
      </trkpt>
      <trkpt lat="42.9564" lon="-0.07374">
        <ele>487.4</ele>
        <time>2024-07-24T23:02:35.266Z</time>
      </trkpt>
      <trkpt lat="42.95662" lon="-0.07416">
        <ele>489.4</ele>
        <time>2024-07-24T23:02:50.044Z</time>
      </trkpt>
      <trkpt lat="42.95669" lon="-0.07439">
        <ele>490.7</ele>
        <time>2024-07-24T23:02:57.622Z</time>
      </trkpt>
      <trkpt lat="42.95677" lon="-0.07475">
        <ele>493.1</ele>
        <time>2024-07-24T23:03:09.701Z</time>
      </trkpt>
      <trkpt lat="42.95685" lon="-0.07494">
        <ele>493.6</ele>
        <time>2024-07-24T23:03:15.546Z</time>
        <extensions>
          <visugpx:TrkExtension xmlns:visugpx="https://www.visugpx.com/editgpx/">
            <visugpx:node>9</visugpx:node>
            </visugpx:TrkExtension>
        </extensions>
      </trkpt>
      <trkpt lat="42.95696" lon="-0.07505">
        <ele>492.6</ele>
        <time>2024-07-24T23:03:19.486Z</time>
      </trkpt>
      <trkpt lat="42.95707" lon="-0.0751">
        <ele>490</ele>
        <time>2024-07-24T23:03:22.838Z</time>
      </trkpt>
      <trkpt lat="42.95723" lon="-0.07512">
        <ele>486.5</ele>
        <time>2024-07-24T23:03:27.482Z</time>
      </trkpt>
      <trkpt lat="42.95739" lon="-0.07511">
        <ele>488.7</ele>
        <time>2024-07-24T23:03:35.875Z</time>
      </trkpt>
      <trkpt lat="42.9578" lon="-0.07497">
        <ele>489.8</ele>
        <time>2024-07-24T23:03:51.022Z</time>
      </trkpt>
      <trkpt lat="42.95782" lon="-0.07489">
        <ele>489.3</ele>
        <time>2024-07-24T23:03:52.811Z</time>
      </trkpt>
      <trkpt lat="42.95787" lon="-0.07486">
        <ele>489.2</ele>
        <time>2024-07-24T23:03:54.517Z</time>
      </trkpt>
      <trkpt lat="42.95791" lon="-0.07487">
        <ele>489.3</ele>
        <time>2024-07-24T23:03:55.968Z</time>
      </trkpt>
      <trkpt lat="42.95794" lon="-0.07493">
        <ele>489.6</ele>
        <time>2024-07-24T23:03:58.071Z</time>
      </trkpt>
      <trkpt lat="42.95801" lon="-0.07491">
        <ele>489.6</ele>
        <time>2024-07-24T23:04:00.434Z</time>
      </trkpt>
      <trkpt lat="42.95815" lon="-0.07485">
        <ele>489</ele>
        <time>2024-07-24T23:04:04.722Z</time>
      </trkpt>
      <trkpt lat="42.95862" lon="-0.07459">
        <ele>486.5</ele>
        <time>2024-07-24T23:04:19.380Z</time>
      </trkpt>
      <trkpt lat="42.95884" lon="-0.07454">
        <ele>486.1</ele>
        <time>2024-07-24T23:04:26.357Z</time>
      </trkpt>
      <trkpt lat="42.95926" lon="-0.07448">
        <ele>484.3</ele>
        <time>2024-07-24T23:04:38.635Z</time>
      </trkpt>
      <trkpt lat="42.96081" lon="-0.07448">
        <ele>477.1</ele>
        <time>2024-07-24T23:05:23.444Z</time>
      </trkpt>
      <trkpt lat="42.96215" lon="-0.07451">
        <ele>473.5</ele>
        <time>2024-07-24T23:06:04.263Z</time>
      </trkpt>
      <trkpt lat="42.96317" lon="-0.0745">
        <ele>469.8</ele>
        <time>2024-07-24T23:06:34.477Z</time>
      </trkpt>
      <trkpt lat="42.96338" lon="-0.07448">
        <ele>469</ele>
        <time>2024-07-24T23:06:40.681Z</time>
      </trkpt>
      <trkpt lat="42.96351" lon="-0.07471">
        <ele>469.3</ele>
        <time>2024-07-24T23:06:48.022Z</time>
      </trkpt>
      <trkpt lat="42.96402" lon="-0.07534">
        <ele>468.2</ele>
        <time>2024-07-24T23:07:09.655Z</time>
      </trkpt>
      <trkpt lat="42.96423" lon="-0.07556">
        <ele>467.8</ele>
        <time>2024-07-24T23:07:18.004Z</time>
      </trkpt>
      <trkpt lat="42.96446" lon="-0.07572">
        <ele>468.1</ele>
        <time>2024-07-24T23:07:26.843Z</time>
      </trkpt>
      <trkpt lat="42.96471" lon="-0.07582">
        <ele>467.9</ele>
        <time>2024-07-24T23:07:35.250Z</time>
      </trkpt>
      <trkpt lat="42.9651" lon="-0.07593">
        <ele>469.5</ele>
        <time>2024-07-24T23:07:50.185Z</time>
      </trkpt>
      <trkpt lat="42.96539" lon="-0.07613">
        <ele>471.6</ele>
        <time>2024-07-24T23:08:03.389Z</time>
      </trkpt>
      <trkpt lat="42.96552" lon="-0.07617">
        <ele>472.7</ele>
        <time>2024-07-24T23:08:09.143Z</time>
      </trkpt>
      <trkpt lat="42.96566" lon="-0.07616">
        <ele>473.6</ele>
        <time>2024-07-24T23:08:14.833Z</time>
      </trkpt>
      <trkpt lat="42.96578" lon="-0.07613">
        <ele>474</ele>
        <time>2024-07-24T23:08:19.301Z</time>
      </trkpt>
      <trkpt lat="42.96623" lon="-0.07595">
        <ele>478.3</ele>
        <time>2024-07-24T23:08:40.193Z</time>
      </trkpt>
      <trkpt lat="42.96645" lon="-0.07592">
        <ele>480.9</ele>
        <time>2024-07-24T23:08:50.981Z</time>
      </trkpt>
      <trkpt lat="42.96654" lon="-0.07593">
        <ele>481.1</ele>
        <time>2024-07-24T23:08:54.178Z</time>
      </trkpt>
      <trkpt lat="42.96703" lon="-0.07615">
        <ele>484.4</ele>
        <time>2024-07-24T23:09:15.096Z</time>
      </trkpt>
      <trkpt lat="42.96736" lon="-0.07634">
        <ele>487.8</ele>
        <time>2024-07-24T23:09:31.232Z</time>
      </trkpt>
      <trkpt lat="42.96782" lon="-0.07667">
        <ele>492.7</ele>
        <time>2024-07-24T23:09:54.591Z</time>
      </trkpt>
      <trkpt lat="42.96834" lon="-0.07718">
        <ele>497.9</ele>
        <time>2024-07-24T23:10:22.105Z</time>
      </trkpt>
      <trkpt lat="42.9686" lon="-0.07748">
        <ele>501.1</ele>
        <time>2024-07-24T23:10:37.390Z</time>
      </trkpt>
      <trkpt lat="42.96903" lon="-0.07803">
        <ele>506.3</ele>
        <time>2024-07-24T23:11:03.326Z</time>
      </trkpt>
      <trkpt lat="42.96933" lon="-0.07834">
        <ele>506.7</ele>
        <time>2024-07-24T23:11:16.168Z</time>
        <extensions>
          <visugpx:TrkExtension xmlns:visugpx="https://www.visugpx.com/editgpx/">
            <visugpx:node>10</visugpx:node>
            </visugpx:TrkExtension>
        </extensions>
      </trkpt>
      <trkpt lat="42.96967" lon="-0.07865">
        <ele>508.8</ele>
        <time>2024-07-24T23:11:32.068Z</time>
      </trkpt>
      <trkpt lat="42.96997" lon="-0.07901">
        <ele>510.7</ele>
        <time>2024-07-24T23:11:47.407Z</time>
      </trkpt>
      <trkpt lat="42.97018" lon="-0.07932">
        <ele>513.7</ele>
        <time>2024-07-24T23:12:01.438Z</time>
      </trkpt>
      <trkpt lat="42.97052" lon="-0.07992">
        <ele>518.1</ele>
        <time>2024-07-24T23:12:25.146Z</time>
      </trkpt>
      <trkpt lat="42.97083" lon="-0.08038">
        <ele>522.9</ele>
        <time>2024-07-24T23:12:46.493Z</time>
      </trkpt>
      <trkpt lat="42.97094" lon="-0.08063">
        <ele>524.6</ele>
        <time>2024-07-24T23:12:55.619Z</time>
      </trkpt>
      <trkpt lat="42.97113" lon="-0.08126">
        <ele>526.3</ele>
        <time>2024-07-24T23:13:13.956Z</time>
      </trkpt>
      <trkpt lat="42.97129" lon="-0.08171">
        <ele>531.8</ele>
        <time>2024-07-24T23:13:34.069Z</time>
      </trkpt>
      <trkpt lat="42.97143" lon="-0.08198">
        <ele>530.3</ele>
        <time>2024-07-24T23:13:41.069Z</time>
      </trkpt>
      <trkpt lat="42.9716" lon="-0.08221">
        <ele>533</ele>
        <time>2024-07-24T23:13:52.547Z</time>
      </trkpt>
      <trkpt lat="42.972" lon="-0.08258">
        <ele>534.8</ele>
        <time>2024-07-24T23:14:10.493Z</time>
      </trkpt>
      <trkpt lat="42.97227" lon="-0.08277">
        <ele>535.7</ele>
        <time>2024-07-24T23:14:21.504Z</time>
      </trkpt>
      <trkpt lat="42.97255" lon="-0.0829">
        <ele>537.3</ele>
        <time>2024-07-24T23:14:33.111Z</time>
      </trkpt>
      <trkpt lat="42.97322" lon="-0.08316">
        <ele>540.6</ele>
        <time>2024-07-24T23:14:59.853Z</time>
      </trkpt>
      <trkpt lat="42.97375" lon="-0.08349">
        <ele>542.4</ele>
        <time>2024-07-24T23:15:21.054Z</time>
      </trkpt>
      <trkpt lat="42.97403" lon="-0.08363">
        <ele>544.1</ele>
        <time>2024-07-24T23:15:32.870Z</time>
      </trkpt>
      <trkpt lat="42.97442" lon="-0.08379">
        <ele>545.1</ele>
        <time>2024-07-24T23:15:47.397Z</time>
      </trkpt>
      <trkpt lat="42.97455" lon="-0.08387">
        <ele>544.9</ele>
        <time>2024-07-24T23:15:51.910Z</time>
      </trkpt>
      <trkpt lat="42.97478" lon="-0.08405">
        <ele>545.4</ele>
        <time>2024-07-24T23:16:01.196Z</time>
      </trkpt>
      <trkpt lat="42.97535" lon="-0.08458">
        <ele>549.1</ele>
        <time>2024-07-24T23:16:28.217Z</time>
      </trkpt>
      <trkpt lat="42.97547" lon="-0.08474">
        <ele>552.5</ele>
        <time>2024-07-24T23:16:39.475Z</time>
      </trkpt>
      <trkpt lat="42.97563" lon="-0.08502">
        <ele>553.7</ele>
        <time>2024-07-24T23:16:49.416Z</time>
      </trkpt>
      <trkpt lat="42.97591" lon="-0.08529">
        <ele>554.6</ele>
        <time>2024-07-24T23:17:01.707Z</time>
      </trkpt>
      <trkpt lat="42.97607" lon="-0.08548">
        <ele>556</ele>
        <time>2024-07-24T23:17:10.363Z</time>
      </trkpt>
      <trkpt lat="42.97617" lon="-0.08567">
        <ele>554.5</ele>
        <time>2024-07-24T23:17:15.314Z</time>
      </trkpt>
      <trkpt lat="42.9762" lon="-0.08578">
        <ele>554.6</ele>
        <time>2024-07-24T23:17:18.256Z</time>
      </trkpt>
      <trkpt lat="42.97625" lon="-0.08617">
        <ele>557.8</ele>
        <time>2024-07-24T23:17:32.037Z</time>
      </trkpt>
      <trkpt lat="42.97622" lon="-0.0866">
        <ele>557.1</ele>
        <time>2024-07-24T23:17:41.799Z</time>
      </trkpt>
      <trkpt lat="42.97623" lon="-0.08681">
        <ele>555.3</ele>
        <time>2024-07-24T23:17:46.251Z</time>
      </trkpt>
      <trkpt lat="42.97633" lon="-0.08743">
        <ele>554.4</ele>
        <time>2024-07-24T23:18:00.719Z</time>
      </trkpt>
      <trkpt lat="42.97637" lon="-0.08758">
        <ele>554.2</ele>
        <time>2024-07-24T23:18:04.382Z</time>
      </trkpt>
      <trkpt lat="42.97647" lon="-0.08781">
        <ele>553.4</ele>
        <time>2024-07-24T23:18:10.103Z</time>
      </trkpt>
      <trkpt lat="42.97654" lon="-0.08792">
        <ele>551.7</ele>
        <time>2024-07-24T23:18:13.186Z</time>
      </trkpt>
      <trkpt lat="42.97722" lon="-0.08879">
        <ele>546.3</ele>
        <time>2024-07-24T23:18:40.113Z</time>
      </trkpt>
      <trkpt lat="42.97734" lon="-0.08889">
        <ele>545</ele>
        <time>2024-07-24T23:18:44.176Z</time>
      </trkpt>
      <trkpt lat="42.9775" lon="-0.08896">
        <ele>541.5</ele>
        <time>2024-07-24T23:18:49.032Z</time>
      </trkpt>
      <trkpt lat="42.97758" lon="-0.08897">
        <ele>540.8</ele>
        <time>2024-07-24T23:18:51.355Z</time>
      </trkpt>
      <trkpt lat="42.97775" lon="-0.08892">
        <ele>539.1</ele>
        <time>2024-07-24T23:18:56.382Z</time>
      </trkpt>
      <trkpt lat="42.97783" lon="-0.08893">
        <ele>538.2</ele>
        <time>2024-07-24T23:18:58.704Z</time>
      </trkpt>
      <trkpt lat="42.97789" lon="-0.08896">
        <ele>537.3</ele>
        <time>2024-07-24T23:19:00.551Z</time>
      </trkpt>
      <trkpt lat="42.97801" lon="-0.08905">
        <ele>536</ele>
        <time>2024-07-24T23:19:04.508Z</time>
      </trkpt>
      <trkpt lat="42.97831" lon="-0.08941">
        <ele>533</ele>
        <time>2024-07-24T23:19:16.049Z</time>
      </trkpt>
      <trkpt lat="42.97841" lon="-0.0895">
        <ele>532.6</ele>
        <time>2024-07-24T23:19:19.625Z</time>
      </trkpt>
      <trkpt lat="42.97875" lon="-0.08964">
        <ele>530.9</ele>
        <time>2024-07-24T23:19:29.891Z</time>
      </trkpt>
      <trkpt lat="42.97933" lon="-0.09013">
        <ele>533.1</ele>
        <time>2024-07-24T23:19:54.821Z</time>
      </trkpt>
      <trkpt lat="42.97954" lon="-0.09028">
        <ele>535</ele>
        <time>2024-07-24T23:20:04.970Z</time>
      </trkpt>
      <trkpt lat="42.97966" lon="-0.09033">
        <ele>535.6</ele>
        <time>2024-07-24T23:20:09.794Z</time>
      </trkpt>
      <trkpt lat="42.97994" lon="-0.09037">
        <ele>536</ele>
        <time>2024-07-24T23:20:19.514Z</time>
      </trkpt>
      <trkpt lat="42.98023" lon="-0.09049">
        <ele>537.9</ele>
        <time>2024-07-24T23:20:31.751Z</time>
      </trkpt>
      <trkpt lat="42.98036" lon="-0.09063">
        <ele>539.5</ele>
        <time>2024-07-24T23:20:39.253Z</time>
      </trkpt>
      <trkpt lat="42.98043" lon="-0.09081">
        <ele>540.8</ele>
        <time>2024-07-24T23:20:45.796Z</time>
      </trkpt>
      <trkpt lat="42.98049" lon="-0.09081">
        <ele>540.8</ele>
        <time>2024-07-24T23:20:47.778Z</time>
      </trkpt>
      <trkpt lat="42.98051" lon="-0.09084">
        <ele>541</ele>
        <time>2024-07-24T23:20:48.996Z</time>
      </trkpt>
      <trkpt lat="42.98052" lon="-0.09088">
        <ele>541.3</ele>
        <time>2024-07-24T23:20:50.399Z</time>
      </trkpt>
      <trkpt lat="42.98049" lon="-0.09095">
        <ele>541.8</ele>
        <time>2024-07-24T23:20:52.977Z</time>
      </trkpt>
      <trkpt lat="42.98046" lon="-0.09096">
        <ele>541.9</ele>
        <time>2024-07-24T23:20:54.106Z</time>
      </trkpt>
      <trkpt lat="42.98043" lon="-0.09095">
        <ele>541.8</ele>
        <time>2024-07-24T23:20:55.032Z</time>
        <extensions>
          <visugpx:TrkExtension xmlns:visugpx="https://www.visugpx.com/editgpx/">
            <visugpx:node>11</visugpx:node>
            </visugpx:TrkExtension>
        </extensions>
      </trkpt>
      <trkpt lat="42.98035" lon="-0.09098">
        <ele>542.1</ele>
        <time>2024-07-24T23:20:58.103Z</time>
      </trkpt>
      <trkpt lat="42.9803" lon="-0.0911">
        <ele>542.9</ele>
        <time>2024-07-24T23:21:02.416Z</time>
      </trkpt>
      <trkpt lat="42.98026" lon="-0.09172">
        <ele>545.4</ele>
        <time>2024-07-24T23:21:20.336Z</time>
      </trkpt>
      <trkpt lat="42.98028" lon="-0.09221">
        <ele>548</ele>
        <time>2024-07-24T23:21:35.315Z</time>
      </trkpt>
      <trkpt lat="42.98035" lon="-0.09275">
        <ele>551.7</ele>
        <time>2024-07-24T23:21:53.224Z</time>
      </trkpt>
      <trkpt lat="42.98042" lon="-0.09297">
        <ele>553.7</ele>
        <time>2024-07-24T23:22:01.677Z</time>
      </trkpt>
      <trkpt lat="42.98056" lon="-0.0932">
        <ele>555.5</ele>
        <time>2024-07-24T23:22:11.119Z</time>
      </trkpt>
      <trkpt lat="42.98133" lon="-0.0943">
        <ele>566.8</ele>
        <time>2024-07-24T23:23:02.456Z</time>
      </trkpt>
      <trkpt lat="42.98162" lon="-0.09461">
        <ele>571.3</ele>
        <time>2024-07-24T23:23:20.720Z</time>
      </trkpt>
      <trkpt lat="42.98142" lon="-0.09457">
        <ele>572</ele>
        <time>2024-07-24T23:23:28.166Z</time>
      </trkpt>
      <trkpt lat="42.98124" lon="-0.09448">
        <ele>571.4</ele>
        <time>2024-07-24T23:23:33.928Z</time>
        <extensions>
          <visugpx:TrkExtension xmlns:visugpx="https://www.visugpx.com/editgpx/">
            <visugpx:node>12</visugpx:node>
            </visugpx:TrkExtension>
        </extensions>
      </trkpt>
      <trkpt lat="42.98142" lon="-0.09457">
        <ele>572</ele>
        <time>2024-07-24T23:23:40.914Z</time>
      </trkpt>
      <trkpt lat="42.98162" lon="-0.09461">
        <ele>571.3</ele>
        <time>2024-07-24T23:23:46.930Z</time>
      </trkpt>
      <trkpt lat="42.98171" lon="-0.09468">
        <ele>572.1</ele>
        <time>2024-07-24T23:23:51.322Z</time>
      </trkpt>
      <trkpt lat="42.98176" lon="-0.0947">
        <ele>572.2</ele>
        <time>2024-07-24T23:23:53.149Z</time>
      </trkpt>
      <trkpt lat="42.982" lon="-0.09472">
        <ele>571.3</ele>
        <time>2024-07-24T23:24:00.247Z</time>
      </trkpt>
      <trkpt lat="42.98219" lon="-0.09478">
        <ele>570.8</ele>
        <time>2024-07-24T23:24:06.208Z</time>
      </trkpt>
      <trkpt lat="42.98244" lon="-0.09494">
        <ele>570.4</ele>
        <time>2024-07-24T23:24:14.934Z</time>
      </trkpt>
      <trkpt lat="42.98309" lon="-0.09546">
        <ele>572.1</ele>
        <time>2024-07-24T23:24:41.633Z</time>
      </trkpt>
      <trkpt lat="42.98324" lon="-0.09561">
        <ele>572.1</ele>
        <time>2024-07-24T23:24:47.774Z</time>
      </trkpt>
      <trkpt lat="42.9833" lon="-0.0957">
        <ele>572.9</ele>
        <time>2024-07-24T23:24:51.717Z</time>
      </trkpt>
      <trkpt lat="42.9836" lon="-0.09644">
        <ele>581.5</ele>
        <time>2024-07-24T23:25:24.337Z</time>
      </trkpt>
      <trkpt lat="42.98382" lon="-0.09693">
        <ele>584.1</ele>
        <time>2024-07-24T23:25:41.273Z</time>
      </trkpt>
      <trkpt lat="42.98401" lon="-0.0975">
        <ele>589.5</ele>
        <time>2024-07-24T23:26:03.652Z</time>
      </trkpt>
      <trkpt lat="42.98412" lon="-0.09778">
        <ele>592.2</ele>
        <time>2024-07-24T23:26:14.937Z</time>
      </trkpt>
      <trkpt lat="42.98425" lon="-0.09802">
        <ele>594.4</ele>
        <time>2024-07-24T23:26:24.980Z</time>
      </trkpt>
      <trkpt lat="42.98455" lon="-0.09844">
        <ele>594.9</ele>
        <time>2024-07-24T23:26:39.689Z</time>
      </trkpt>
      <trkpt lat="42.98472" lon="-0.09884">
        <ele>596.3</ele>
        <time>2024-07-24T23:26:52.431Z</time>
      </trkpt>
      <trkpt lat="42.98516" lon="-0.09967">
        <ele>598.4</ele>
        <time>2024-07-24T23:27:19.476Z</time>
      </trkpt>
      <trkpt lat="42.98537" lon="-0.10003">
        <ele>599.3</ele>
        <time>2024-07-24T23:27:31.576Z</time>
      </trkpt>
      <trkpt lat="42.98555" lon="-0.10047">
        <ele>599.5</ele>
        <time>2024-07-24T23:27:43.966Z</time>
      </trkpt>
      <trkpt lat="42.98592" lon="-0.1015">
        <ele>602.3</ele>
        <time>2024-07-24T23:28:14.764Z</time>
      </trkpt>
      <trkpt lat="42.98597" lon="-0.10176">
        <ele>604.5</ele>
        <time>2024-07-24T23:28:24.167Z</time>
      </trkpt>
      <trkpt lat="42.98602" lon="-0.10231">
        <ele>608.3</ele>
        <time>2024-07-24T23:28:42.359Z</time>
      </trkpt>
      <trkpt lat="42.98607" lon="-0.10263">
        <ele>608.8</ele>
        <time>2024-07-24T23:28:50.799Z</time>
      </trkpt>
      <trkpt lat="42.98607" lon="-0.10353">
        <ele>612.9</ele>
        <time>2024-07-24T23:29:17.350Z</time>
      </trkpt>
      <trkpt lat="42.98609" lon="-0.10389">
        <ele>616.5</ele>
        <time>2024-07-24T23:29:31.136Z</time>
        <extensions>
          <visugpx:TrkExtension xmlns:visugpx="https://www.visugpx.com/editgpx/">
            <visugpx:node>13</visugpx:node>
            </visugpx:TrkExtension>
        </extensions>
      </trkpt>
      <trkpt lat="42.98616" lon="-0.10432">
        <ele>621.9</ele>
        <time>2024-07-24T23:29:50.028Z</time>
      </trkpt>
      <trkpt lat="42.98631" lon="-0.10467">
        <ele>624.2</ele>
        <time>2024-07-24T23:30:02.623Z</time>
      </trkpt>
      <trkpt lat="42.98652" lon="-0.105">
        <ele>627.1</ele>
        <time>2024-07-24T23:30:16.827Z</time>
      </trkpt>
      <trkpt lat="42.98683" lon="-0.10535">
        <ele>630.7</ele>
        <time>2024-07-24T23:30:34.609Z</time>
      </trkpt>
      <trkpt lat="42.98697" lon="-0.10554">
        <ele>632.7</ele>
        <time>2024-07-24T23:30:43.699Z</time>
      </trkpt>
      <trkpt lat="42.98743" lon="-0.10636">
        <ele>637.9</ele>
        <time>2024-07-24T23:31:14.854Z</time>
      </trkpt>
      <trkpt lat="42.98748" lon="-0.1065">
        <ele>638</ele>
        <time>2024-07-24T23:31:18.723Z</time>
      </trkpt>
      <trkpt lat="42.9875" lon="-0.10667">
        <ele>638</ele>
        <time>2024-07-24T23:31:22.884Z</time>
      </trkpt>
      <trkpt lat="42.98748" lon="-0.10703">
        <ele>637.1</ele>
        <time>2024-07-24T23:31:30.758Z</time>
      </trkpt>
      <trkpt lat="42.98739" lon="-0.10733">
        <ele>637</ele>
        <time>2024-07-24T23:31:38.494Z</time>
      </trkpt>
      <trkpt lat="42.98717" lon="-0.10778">
        <ele>636.2</ele>
        <time>2024-07-24T23:31:50.795Z</time>
      </trkpt>
      <trkpt lat="42.98703" lon="-0.10796">
        <ele>636.5</ele>
        <time>2024-07-24T23:31:57.461Z</time>
      </trkpt>
      <trkpt lat="42.98669" lon="-0.10829">
        <ele>637</ele>
        <time>2024-07-24T23:32:11.759Z</time>
      </trkpt>
      <trkpt lat="42.98659" lon="-0.10841">
        <ele>637.1</ele>
        <time>2024-07-24T23:32:16.259Z</time>
      </trkpt>
      <trkpt lat="42.98646" lon="-0.10861">
        <ele>637.2</ele>
        <time>2024-07-24T23:32:22.828Z</time>
      </trkpt>
      <trkpt lat="42.98638" lon="-0.10882">
        <ele>637.3</ele>
        <time>2024-07-24T23:32:28.653Z</time>
      </trkpt>
      <trkpt lat="42.98631" lon="-0.10909">
        <ele>637</ele>
        <time>2024-07-24T23:32:35.281Z</time>
      </trkpt>
      <trkpt lat="42.98628" lon="-0.10936">
        <ele>637.6</ele>
        <time>2024-07-24T23:32:42.533Z</time>
      </trkpt>
      <trkpt lat="42.9863" lon="-0.10982">
        <ele>638</ele>
        <time>2024-07-24T23:32:54.088Z</time>
      </trkpt>
      <trkpt lat="42.9865" lon="-0.1113">
        <ele>639.5</ele>
        <time>2024-07-24T23:33:32.033Z</time>
      </trkpt>
      <trkpt lat="42.98655" lon="-0.11193">
        <ele>641.1</ele>
        <time>2024-07-24T23:33:49.105Z</time>
      </trkpt>
      <trkpt lat="42.98656" lon="-0.11234">
        <ele>640.1</ele>
        <time>2024-07-24T23:33:58.072Z</time>
      </trkpt>
      <trkpt lat="42.9865" lon="-0.11342">
        <ele>641.3</ele>
        <time>2024-07-24T23:34:25.510Z</time>
      </trkpt>
      <trkpt lat="42.98646" lon="-0.11376">
        <ele>642.2</ele>
        <time>2024-07-24T23:34:34.824Z</time>
      </trkpt>
      <trkpt lat="42.98641" lon="-0.11398">
        <ele>642.7</ele>
        <time>2024-07-24T23:34:40.934Z</time>
      </trkpt>
      <trkpt lat="42.98624" lon="-0.1145">
        <ele>643.9</ele>
        <time>2024-07-24T23:34:56.000Z</time>
      </trkpt>
      <trkpt lat="42.98606" lon="-0.1152">
        <ele>643.8</ele>
        <time>2024-07-24T23:35:13.832Z</time>
      </trkpt>
      <trkpt lat="42.98597" lon="-0.11542">
        <ele>644</ele>
        <time>2024-07-24T23:35:20.132Z</time>
      </trkpt>
      <trkpt lat="42.98584" lon="-0.11561">
        <ele>644.7</ele>
        <time>2024-07-24T23:35:27.192Z</time>
      </trkpt>
      <trkpt lat="42.98576" lon="-0.11568">
        <ele>645.3</ele>
        <time>2024-07-24T23:35:31.034Z</time>
      </trkpt>
      <trkpt lat="42.98545" lon="-0.11584">
        <ele>647.7</ele>
        <time>2024-07-24T23:35:44.859Z</time>
      </trkpt>
      <trkpt lat="42.98516" lon="-0.11606">
        <ele>649.5</ele>
        <time>2024-07-24T23:35:57.884Z</time>
      </trkpt>
      <trkpt lat="42.98499" lon="-0.11625">
        <ele>650.1</ele>
        <time>2024-07-24T23:36:05.787Z</time>
      </trkpt>
      <trkpt lat="42.98493" lon="-0.11636">
        <ele>650.2</ele>
        <time>2024-07-24T23:36:09.207Z</time>
      </trkpt>
      <trkpt lat="42.98482" lon="-0.11674">
        <ele>650.6</ele>
        <time>2024-07-24T23:36:19.503Z</time>
      </trkpt>
      <trkpt lat="42.98471" lon="-0.11726">
        <ele>653.3</ele>
        <time>2024-07-24T23:36:35.791Z</time>
      </trkpt>
      <trkpt lat="42.98438" lon="-0.11797">
        <ele>660.6</ele>
        <time>2024-07-24T23:37:05.928Z</time>
      </trkpt>
      <trkpt lat="42.98392" lon="-0.11889">
        <ele>672.3</ele>
        <time>2024-07-24T23:37:49.620Z</time>
      </trkpt>
      <trkpt lat="42.98362" lon="-0.11955">
        <ele>675.1</ele>
        <time>2024-07-24T23:38:11.579Z</time>
      </trkpt>
      <trkpt lat="42.98318" lon="-0.12041">
        <ele>678.8</ele>
        <time>2024-07-24T23:38:41.135Z</time>
      </trkpt>
      <trkpt lat="42.98305" lon="-0.12073">
        <ele>678.3</ele>
        <time>2024-07-24T23:38:49.493Z</time>
      </trkpt>
      <trkpt lat="42.98302" lon="-0.12084">
        <ele>678.1</ele>
        <time>2024-07-24T23:38:52.137Z</time>
      </trkpt>
      <trkpt lat="42.98298" lon="-0.12108">
        <ele>678.6</ele>
        <time>2024-07-24T23:38:58.627Z</time>
      </trkpt>
      <trkpt lat="42.98297" lon="-0.12135">
        <ele>678.7</ele>
        <time>2024-07-24T23:39:05.264Z</time>
      </trkpt>
      <trkpt lat="42.98306" lon="-0.12206">
        <ele>682</ele>
        <time>2024-07-24T23:39:26.545Z</time>
      </trkpt>
      <trkpt lat="42.98314" lon="-0.123">
        <ele>685.3</ele>
        <time>2024-07-24T23:39:53.151Z</time>
      </trkpt>
      <trkpt lat="42.98313" lon="-0.12328">
        <ele>686.4</ele>
        <time>2024-07-24T23:40:01.188Z</time>
      </trkpt>
      <trkpt lat="42.98306" lon="-0.12389">
        <ele>688.8</ele>
        <time>2024-07-24T23:40:18.862Z</time>
      </trkpt>
      <trkpt lat="42.98305" lon="-0.12414">
        <ele>687.4</ele>
        <time>2024-07-24T23:40:24.157Z</time>
      </trkpt>
      <trkpt lat="42.98325" lon="-0.12519">
        <ele>682.6</ele>
        <time>2024-07-24T23:40:47.103Z</time>
      </trkpt>
      <trkpt lat="42.98328" lon="-0.12584">
        <ele>674</ele>
        <time>2024-07-24T23:41:00.877Z</time>
      </trkpt>
      <trkpt lat="42.98326" lon="-0.12618">
        <ele>670</ele>
        <time>2024-07-24T23:41:08.090Z</time>
      </trkpt>
      <trkpt lat="42.9832" lon="-0.12639">
        <ele>670.6</ele>
        <time>2024-07-24T23:41:14.201Z</time>
      </trkpt>
      <trkpt lat="42.98315" lon="-0.12649">
        <ele>672.2</ele>
        <time>2024-07-24T23:41:19.659Z</time>
        <extensions>
          <visugpx:TrkExtension xmlns:visugpx="https://www.visugpx.com/editgpx/">
            <visugpx:node>14</visugpx:node>
            </visugpx:TrkExtension>
        </extensions>
      </trkpt>
      <trkpt lat="42.98298" lon="-0.12683">
        <ele>676.2</ele>
        <time>2024-07-24T23:41:35.184Z</time>
      </trkpt>
      <trkpt lat="42.98291" lon="-0.127">
        <ele>676.3</ele>
        <time>2024-07-24T23:41:40.003Z</time>
      </trkpt>
      <trkpt lat="42.9828" lon="-0.12733">
        <ele>675.9</ele>
        <time>2024-07-24T23:41:48.374Z</time>
      </trkpt>
      <trkpt lat="42.98275" lon="-0.12754">
        <ele>675.3</ele>
        <time>2024-07-24T23:41:53.147Z</time>
      </trkpt>
      <trkpt lat="42.98263" lon="-0.12822">
        <ele>671.9</ele>
        <time>2024-07-24T23:42:07.941Z</time>
      </trkpt>
      <trkpt lat="42.9825" lon="-0.12929">
        <ele>669.6</ele>
        <time>2024-07-24T23:42:31.957Z</time>
      </trkpt>
      <trkpt lat="42.98239" lon="-0.12968">
        <ele>672.9</ele>
        <time>2024-07-24T23:42:46.374Z</time>
      </trkpt>
      <trkpt lat="42.98225" lon="-0.12999">
        <ele>677.8</ele>
        <time>2024-07-24T23:43:03.001Z</time>
      </trkpt>
      <trkpt lat="42.98219" lon="-0.13019">
        <ele>679.7</ele>
        <time>2024-07-24T23:43:10.787Z</time>
      </trkpt>
      <trkpt lat="42.98211" lon="-0.1311">
        <ele>678.6</ele>
        <time>2024-07-24T23:43:31.860Z</time>
      </trkpt>
      <trkpt lat="42.98207" lon="-0.13135">
        <ele>678.1</ele>
        <time>2024-07-24T23:43:37.565Z</time>
      </trkpt>
      <trkpt lat="42.98199" lon="-0.13148">
        <ele>677.8</ele>
        <time>2024-07-24T23:43:41.381Z</time>
      </trkpt>
      <trkpt lat="42.9819" lon="-0.13151">
        <ele>679.7</ele>
        <time>2024-07-24T23:43:47.659Z</time>
      </trkpt>
      <trkpt lat="42.9817" lon="-0.13153">
        <ele>685</ele>
        <time>2024-07-24T23:44:04.917Z</time>
      </trkpt>
      <trkpt lat="42.98165" lon="-0.13156">
        <ele>685.7</ele>
        <time>2024-07-24T23:44:07.684Z</time>
      </trkpt>
      <trkpt lat="42.98155" lon="-0.13168">
        <ele>685.7</ele>
        <time>2024-07-24T23:44:12.081Z</time>
      </trkpt>
      <trkpt lat="42.98138" lon="-0.13199">
        <ele>684.6</ele>
        <time>2024-07-24T23:44:20.414Z</time>
      </trkpt>
      <trkpt lat="42.98118" lon="-0.13253">
        <ele>682.6</ele>
        <time>2024-07-24T23:44:33.215Z</time>
      </trkpt>
      <trkpt lat="42.98081" lon="-0.13312">
        <ele>683.9</ele>
        <time>2024-07-24T23:44:53.388Z</time>
      </trkpt>
      <trkpt lat="42.98077" lon="-0.1332">
        <ele>684</ele>
        <time>2024-07-24T23:44:55.835Z</time>
      </trkpt>
      <trkpt lat="42.98074" lon="-0.13332">
        <ele>682.9</ele>
        <time>2024-07-24T23:44:58.517Z</time>
      </trkpt>
      <trkpt lat="42.98077" lon="-0.13352">
        <ele>685.5</ele>
        <time>2024-07-24T23:45:07.492Z</time>
      </trkpt>
      <trkpt lat="42.98081" lon="-0.13353">
        <ele>684.8</ele>
        <time>2024-07-24T23:45:08.668Z</time>
      </trkpt>
      <trkpt lat="42.98086" lon="-0.13357">
        <ele>684.5</ele>
        <time>2024-07-24T23:45:10.342Z</time>
      </trkpt>
      <trkpt lat="42.98106" lon="-0.13378">
        <ele>685.4</ele>
        <time>2024-07-24T23:45:19.665Z</time>
      </trkpt>
      <trkpt lat="42.98135" lon="-0.13416">
        <ele>687</ele>
        <time>2024-07-24T23:45:34.715Z</time>
      </trkpt>
      <trkpt lat="42.98169" lon="-0.13466">
        <ele>690.2</ele>
        <time>2024-07-24T23:45:54.976Z</time>
      </trkpt>
      <trkpt lat="42.98208" lon="-0.13499">
        <ele>680</ele>
        <time>2024-07-24T23:46:08.236Z</time>
      </trkpt>
      <trkpt lat="42.98217" lon="-0.1351">
        <ele>676.4</ele>
        <time>2024-07-24T23:46:11.726Z</time>
      </trkpt>
      <trkpt lat="42.98219" lon="-0.13517">
        <ele>675.9</ele>
        <time>2024-07-24T23:46:13.315Z</time>
      </trkpt>
      <trkpt lat="42.98218" lon="-0.13531">
        <ele>676.6</ele>
        <time>2024-07-24T23:46:17.546Z</time>
      </trkpt>
      <trkpt lat="42.98212" lon="-0.13546">
        <ele>677.6</ele>
        <time>2024-07-24T23:46:22.899Z</time>
        <extensions>
          <visugpx:TrkExtension xmlns:visugpx="https://www.visugpx.com/editgpx/">
            <visugpx:node>15</visugpx:node>
            </visugpx:TrkExtension>
        </extensions>
      </trkpt>
      <trkpt lat="42.98196" lon="-0.13572">
        <ele>678.3</ele>
        <time>2024-07-24T23:46:31.868Z</time>
      </trkpt>
      <trkpt lat="42.98157" lon="-0.13626">
        <ele>680.2</ele>
        <time>2024-07-24T23:46:52.293Z</time>
      </trkpt>
      <trkpt lat="42.98148" lon="-0.13645">
        <ele>679.7</ele>
        <time>2024-07-24T23:46:57.287Z</time>
      </trkpt>
      <trkpt lat="42.98148" lon="-0.13697">
        <ele>663.6</ele>
        <time>2024-07-24T23:47:08.284Z</time>
      </trkpt>
      <trkpt lat="42.98128" lon="-0.1378">
        <ele>666.9</ele>
        <time>2024-07-24T23:47:33.173Z</time>
      </trkpt>
      <trkpt lat="42.98127" lon="-0.1379">
        <ele>667.2</ele>
        <time>2024-07-24T23:47:35.947Z</time>
      </trkpt>
      <trkpt lat="42.98128" lon="-0.13809">
        <ele>665.7</ele>
        <time>2024-07-24T23:47:39.975Z</time>
      </trkpt>
      <trkpt lat="42.98136" lon="-0.13847">
        <ele>659.4</ele>
        <time>2024-07-24T23:47:48.338Z</time>
      </trkpt>
      <trkpt lat="42.98138" lon="-0.13872">
        <ele>658.2</ele>
        <time>2024-07-24T23:47:53.657Z</time>
      </trkpt>
      <trkpt lat="42.98134" lon="-0.13958">
        <ele>663.8</ele>
        <time>2024-07-24T23:48:21.470Z</time>
      </trkpt>
      <trkpt lat="42.9814" lon="-0.14019">
        <ele>659.9</ele>
        <time>2024-07-24T23:48:34.487Z</time>
      </trkpt>
      <trkpt lat="42.9814" lon="-0.14128">
        <ele>657.5</ele>
        <time>2024-07-24T23:48:58.543Z</time>
      </trkpt>
      <trkpt lat="42.98135" lon="-0.14188">
        <ele>656.1</ele>
        <time>2024-07-24T23:49:11.807Z</time>
      </trkpt>
      <trkpt lat="42.98138" lon="-0.14226">
        <ele>654.4</ele>
        <time>2024-07-24T23:49:19.890Z</time>
      </trkpt>
      <trkpt lat="42.98138" lon="-0.14251">
        <ele>654.3</ele>
        <time>2024-07-24T23:49:25.833Z</time>
      </trkpt>
      <trkpt lat="42.98142" lon="-0.14298">
        <ele>653.5</ele>
        <time>2024-07-24T23:49:36.495Z</time>
      </trkpt>
      <trkpt lat="42.98139" lon="-0.14318">
        <ele>655.4</ele>
        <time>2024-07-24T23:49:44.038Z</time>
      </trkpt>
      <trkpt lat="42.98133" lon="-0.14338">
        <ele>657.5</ele>
        <time>2024-07-24T23:49:52.188Z</time>
      </trkpt>
      <trkpt lat="42.98124" lon="-0.14358">
        <ele>658.4</ele>
        <time>2024-07-24T23:49:58.893Z</time>
      </trkpt>
      <trkpt lat="42.98117" lon="-0.14365">
        <ele>659.2</ele>
        <time>2024-07-24T23:50:02.764Z</time>
        <extensions>
          <visugpx:TrkExtension xmlns:visugpx="https://www.visugpx.com/editgpx/">
            <visugpx:node>16</visugpx:node>
            </visugpx:TrkExtension>
        </extensions>
      </trkpt>
      <trkpt lat="42.98113" lon="-0.14367">
        <ele>659.8</ele>
        <time>2024-07-24T23:50:05.025Z</time>
      </trkpt>
      <trkpt lat="42.98093" lon="-0.14365">
        <ele>664.8</ele>
        <time>2024-07-24T23:50:21.255Z</time>
      </trkpt>
      <trkpt lat="42.98086" lon="-0.14366">
        <ele>666.3</ele>
        <time>2024-07-24T23:50:26.178Z</time>
      </trkpt>
      <trkpt lat="42.9808" lon="-0.14369">
        <ele>667.6</ele>
        <time>2024-07-24T23:50:30.479Z</time>
      </trkpt>
      <trkpt lat="42.98063" lon="-0.1439">
        <ele>668.3</ele>
        <time>2024-07-24T23:50:38.811Z</time>
      </trkpt>
      <trkpt lat="42.98045" lon="-0.14423">
        <ele>667.7</ele>
        <time>2024-07-24T23:50:48.176Z</time>
      </trkpt>
      <trkpt lat="42.98038" lon="-0.14446">
        <ele>665.6</ele>
        <time>2024-07-24T23:50:53.444Z</time>
      </trkpt>
      <trkpt lat="42.98032" lon="-0.1451">
        <ele>663</ele>
        <time>2024-07-24T23:51:07.091Z</time>
      </trkpt>
      <trkpt lat="42.98027" lon="-0.14534">
        <ele>662.7</ele>
        <time>2024-07-24T23:51:12.828Z</time>
      </trkpt>
      <trkpt lat="42.98006" lon="-0.14599">
        <ele>666.3</ele>
        <time>2024-07-24T23:51:34.286Z</time>
      </trkpt>
      <trkpt lat="42.97989" lon="-0.14669">
        <ele>665.7</ele>
        <time>2024-07-24T23:51:51.518Z</time>
      </trkpt>
      <trkpt lat="42.97971" lon="-0.14702">
        <ele>670.4</ele>
        <time>2024-07-24T23:52:08.426Z</time>
      </trkpt>
      <trkpt lat="42.97963" lon="-0.14724">
        <ele>673.2</ele>
        <time>2024-07-24T23:52:18.507Z</time>
      </trkpt>
      <trkpt lat="42.97958" lon="-0.14766">
        <ele>673.1</ele>
        <time>2024-07-24T23:52:28.691Z</time>
      </trkpt>
      <trkpt lat="42.97953" lon="-0.14784">
        <ele>674.9</ele>
        <time>2024-07-24T23:52:35.820Z</time>
      </trkpt>
      <trkpt lat="42.97931" lon="-0.14815">
        <ele>681</ele>
        <time>2024-07-24T23:52:56.246Z</time>
      </trkpt>
      <trkpt lat="42.97888" lon="-0.14855">
        <ele>691.3</ele>
        <time>2024-07-24T23:53:30.527Z</time>
      </trkpt>
      <trkpt lat="42.97863" lon="-0.14883">
        <ele>696</ele>
        <time>2024-07-24T23:53:47.972Z</time>
      </trkpt>
      <trkpt lat="42.97848" lon="-0.14903">
        <ele>695.2</ele>
        <time>2024-07-24T23:53:54.144Z</time>
      </trkpt>
      <trkpt lat="42.97829" lon="-0.14933">
        <ele>691.1</ele>
        <time>2024-07-24T23:54:02.536Z</time>
      </trkpt>
      <trkpt lat="42.97799" lon="-0.14996">
        <ele>689.4</ele>
        <time>2024-07-24T23:54:19.086Z</time>
      </trkpt>
      <trkpt lat="42.97786" lon="-0.15013">
        <ele>690</ele>
        <time>2024-07-24T23:54:25.687Z</time>
      </trkpt>
      <trkpt lat="42.97769" lon="-0.15027">
        <ele>692.3</ele>
        <time>2024-07-24T23:54:35.313Z</time>
      </trkpt>
      <trkpt lat="42.9776" lon="-0.15032">
        <ele>694</ele>
        <time>2024-07-24T23:54:41.171Z</time>
      </trkpt>
      <trkpt lat="42.97721" lon="-0.15047">
        <ele>703.6</ele>
        <time>2024-07-24T23:55:12.349Z</time>
      </trkpt>
      <trkpt lat="42.97706" lon="-0.15062">
        <ele>705.9</ele>
        <time>2024-07-24T23:55:21.620Z</time>
      </trkpt>
      <trkpt lat="42.97681" lon="-0.15109">
        <ele>703.4</ele>
        <time>2024-07-24T23:55:33.910Z</time>
      </trkpt>
      <trkpt lat="42.97675" lon="-0.15117">
        <ele>702.9</ele>
        <time>2024-07-24T23:55:36.334Z</time>
      </trkpt>
      <trkpt lat="42.97661" lon="-0.15128">
        <ele>703.3</ele>
        <time>2024-07-24T23:55:42.098Z</time>
      </trkpt>
      <trkpt lat="42.97636" lon="-0.15142">
        <ele>704.5</ele>
        <time>2024-07-24T23:55:52.372Z</time>
      </trkpt>
      <trkpt lat="42.97614" lon="-0.15158">
        <ele>707</ele>
        <time>2024-07-24T23:56:03.813Z</time>
      </trkpt>
      <trkpt lat="42.97584" lon="-0.15176">
        <ele>709.9</ele>
        <time>2024-07-24T23:56:18.252Z</time>
      </trkpt>
      <trkpt lat="42.97571" lon="-0.15181">
        <ele>711</ele>
        <time>2024-07-24T23:56:24.061Z</time>
      </trkpt>
      <trkpt lat="42.97534" lon="-0.15191">
        <ele>714</ele>
        <time>2024-07-24T23:56:40.181Z</time>
      </trkpt>
      <trkpt lat="42.97489" lon="-0.15211">
        <ele>717.8</ele>
        <time>2024-07-24T23:57:00.457Z</time>
      </trkpt>
      <trkpt lat="42.97433" lon="-0.15225">
        <ele>724.9</ele>
        <time>2024-07-24T23:57:28.953Z</time>
      </trkpt>
      <trkpt lat="42.97406" lon="-0.15237">
        <ele>727</ele>
        <time>2024-07-24T23:57:40.860Z</time>
      </trkpt>
      <trkpt lat="42.97362" lon="-0.15252">
        <ele>731.2</ele>
        <time>2024-07-24T23:58:01.130Z</time>
      </trkpt>
      <trkpt lat="42.97347" lon="-0.15258">
        <ele>733.1</ele>
        <time>2024-07-24T23:58:08.865Z</time>
      </trkpt>
      <trkpt lat="42.97279" lon="-0.15301">
        <ele>737</ele>
        <time>2024-07-24T23:58:38.076Z</time>
      </trkpt>
      <trkpt lat="42.97269" lon="-0.15305">
        <ele>738.4</ele>
        <time>2024-07-24T23:58:43.477Z</time>
      </trkpt>
      <trkpt lat="42.9722" lon="-0.15317">
        <ele>748.1</ele>
        <time>2024-07-24T23:59:15.883Z</time>
        <extensions>
          <visugpx:TrkExtension xmlns:visugpx="https://www.visugpx.com/editgpx/">
            <visugpx:node>17</visugpx:node>
            </visugpx:TrkExtension>
        </extensions>
      </trkpt>
      <trkpt lat="42.97203" lon="-0.15322">
        <ele>750.9</ele>
        <time>2024-07-24T23:59:25.829Z</time>
      </trkpt>
      <trkpt lat="42.97195" lon="-0.15326">
        <ele>751.7</ele>
        <time>2024-07-24T23:59:29.654Z</time>
      </trkpt>
      <trkpt lat="42.97185" lon="-0.15335">
        <ele>752.5</ele>
        <time>2024-07-24T23:59:34.556Z</time>
      </trkpt>
      <trkpt lat="42.97173" lon="-0.15352">
        <ele>753</ele>
        <time>2024-07-24T23:59:40.808Z</time>
      </trkpt>
      <trkpt lat="42.97145" lon="-0.15405">
        <ele>752.3</ele>
        <time>2024-07-24T23:59:55.921Z</time>
      </trkpt>
      <trkpt lat="42.97138" lon="-0.15415">
        <ele>752.5</ele>
        <time>2024-07-24T23:59:59.479Z</time>
      </trkpt>
      <trkpt lat="42.9713" lon="-0.15423">
        <ele>753.3</ele>
        <time>2024-07-25T00:00:03.733Z</time>
      </trkpt>
      <trkpt lat="42.97112" lon="-0.15433">
        <ele>755.9</ele>
        <time>2024-07-25T00:00:13.784Z</time>
      </trkpt>
      <trkpt lat="42.97084" lon="-0.15442">
        <ele>760.6</ele>
        <time>2024-07-25T00:00:30.383Z</time>
      </trkpt>
      <trkpt lat="42.9707" lon="-0.15454">
        <ele>762.3</ele>
        <time>2024-07-25T00:00:38.038Z</time>
      </trkpt>
      <trkpt lat="42.97062" lon="-0.15466">
        <ele>761.4</ele>
        <time>2024-07-25T00:00:41.472Z</time>
      </trkpt>
      <trkpt lat="42.97075" lon="-0.15488">
        <ele>760.1</ele>
        <time>2024-07-25T00:00:47.454Z</time>
      </trkpt>
      <trkpt lat="42.9708" lon="-0.15493">
        <ele>760.6</ele>
        <time>2024-07-25T00:00:50.112Z</time>
      </trkpt>
      <trkpt lat="42.97085" lon="-0.15495">
        <ele>760.8</ele>
        <time>2024-07-25T00:00:52.055Z</time>
      </trkpt>
      <trkpt lat="42.971" lon="-0.15495">
        <ele>760</ele>
        <time>2024-07-25T00:00:56.391Z</time>
      </trkpt>
      <trkpt lat="42.97108" lon="-0.15498">
        <ele>760.5</ele>
        <time>2024-07-25T00:00:59.714Z</time>
      </trkpt>
      <trkpt lat="42.97121" lon="-0.15511">
        <ele>765.9</ele>
        <time>2024-07-25T00:01:18.338Z</time>
      </trkpt>
      <trkpt lat="42.97133" lon="-0.1552">
        <ele>767.3</ele>
        <time>2024-07-25T00:01:24.666Z</time>
      </trkpt>
      <trkpt lat="42.97176" lon="-0.15543">
        <ele>766.8</ele>
        <time>2024-07-25T00:01:39.425Z</time>
      </trkpt>
      <trkpt lat="42.97204" lon="-0.15551">
        <ele>767.2</ele>
        <time>2024-07-25T00:01:49.295Z</time>
      </trkpt>
      <trkpt lat="42.97238" lon="-0.15558">
        <ele>770.5</ele>
        <time>2024-07-25T00:02:04.844Z</time>
      </trkpt>
      <trkpt lat="42.97247" lon="-0.15559">
        <ele>771.7</ele>
        <time>2024-07-25T00:02:09.499Z</time>
      </trkpt>
      <trkpt lat="42.97257" lon="-0.15558">
        <ele>772.8</ele>
        <time>2024-07-25T00:02:14.257Z</time>
      </trkpt>
      <trkpt lat="42.97277" lon="-0.15553">
        <ele>774.6</ele>
        <time>2024-07-25T00:02:23.218Z</time>
      </trkpt>
      <trkpt lat="42.97294" lon="-0.15545">
        <ele>775.7</ele>
        <time>2024-07-25T00:02:30.442Z</time>
      </trkpt>
      <trkpt lat="42.97313" lon="-0.1553">
        <ele>774.2</ele>
        <time>2024-07-25T00:02:36.785Z</time>
      </trkpt>
      <trkpt lat="42.97319" lon="-0.15527">
        <ele>774.5</ele>
        <time>2024-07-25T00:02:39.235Z</time>
      </trkpt>
      <trkpt lat="42.97347" lon="-0.15523">
        <ele>780.3</ele>
        <time>2024-07-25T00:02:58.381Z</time>
      </trkpt>
      <trkpt lat="42.97369" lon="-0.15511">
        <ele>779.4</ele>
        <time>2024-07-25T00:03:05.362Z</time>
      </trkpt>
      <trkpt lat="42.97377" lon="-0.15509">
        <ele>779.7</ele>
        <time>2024-07-25T00:03:08.380Z</time>
      </trkpt>
      <trkpt lat="42.97437" lon="-0.15513">
        <ele>789.9</ele>
        <time>2024-07-25T00:03:43.895Z</time>
      </trkpt>
      <trkpt lat="42.97458" lon="-0.15518">
        <ele>792.5</ele>
        <time>2024-07-25T00:03:54.461Z</time>
      </trkpt>
      <trkpt lat="42.97471" lon="-0.15527">
        <ele>795.7</ele>
        <time>2024-07-25T00:04:04.919Z</time>
      </trkpt>
      <trkpt lat="42.97498" lon="-0.15563">
        <ele>796.1</ele>
        <time>2024-07-25T00:04:17.797Z</time>
      </trkpt>
      <trkpt lat="42.97514" lon="-0.15571">
        <ele>793.6</ele>
        <time>2024-07-25T00:04:22.723Z</time>
      </trkpt>
      <trkpt lat="42.97529" lon="-0.15571">
        <ele>791.3</ele>
        <time>2024-07-25T00:04:27.059Z</time>
      </trkpt>
      <trkpt lat="42.97551" lon="-0.15563">
        <ele>791.1</ele>
        <time>2024-07-25T00:04:34.381Z</time>
      </trkpt>
      <trkpt lat="42.9756" lon="-0.15558">
        <ele>790.4</ele>
        <time>2024-07-25T00:04:37.189Z</time>
        <extensions>
          <visugpx:TrkExtension xmlns:visugpx="https://www.visugpx.com/editgpx/">
            <visugpx:node>18</visugpx:node>
            </visugpx:TrkExtension>
        </extensions>
      </trkpt>
      <trkpt lat="42.9757" lon="-0.15552">
        <ele>789.7</ele>
        <time>2024-07-25T00:04:40.346Z</time>
      </trkpt>
      <trkpt lat="42.97575" lon="-0.15551">
        <ele>789.8</ele>
        <time>2024-07-25T00:04:42.122Z</time>
      </trkpt>
      <trkpt lat="42.97579" lon="-0.15552">
        <ele>789.9</ele>
        <time>2024-07-25T00:04:43.573Z</time>
      </trkpt>
      <trkpt lat="42.97582" lon="-0.15555">
        <ele>790</ele>
        <time>2024-07-25T00:04:44.909Z</time>
      </trkpt>
      <trkpt lat="42.97584" lon="-0.15561">
        <ele>790.3</ele>
        <time>2024-07-25T00:04:46.854Z</time>
      </trkpt>
      <trkpt lat="42.97584" lon="-0.15568">
        <ele>790.8</ele>
        <time>2024-07-25T00:04:49.183Z</time>
      </trkpt>
      <trkpt lat="42.97579" lon="-0.1561">
        <ele>794.5</ele>
        <time>2024-07-25T00:05:04.442Z</time>
      </trkpt>
      <trkpt lat="42.97555" lon="-0.15686">
        <ele>800.1</ele>
        <time>2024-07-25T00:05:31.499Z</time>
      </trkpt>
      <trkpt lat="42.97549" lon="-0.15738">
        <ele>800.6</ele>
        <time>2024-07-25T00:05:44.747Z</time>
      </trkpt>
      <trkpt lat="42.97547" lon="-0.15773">
        <ele>800.3</ele>
        <time>2024-07-25T00:05:52.936Z</time>
      </trkpt>
      <trkpt lat="42.97543" lon="-0.15799">
        <ele>799.3</ele>
        <time>2024-07-25T00:05:58.555Z</time>
      </trkpt>
      <trkpt lat="42.97527" lon="-0.15856">
        <ele>799.3</ele>
        <time>2024-07-25T00:06:13.313Z</time>
      </trkpt>
      <trkpt lat="42.97517" lon="-0.15901">
        <ele>799.5</ele>
        <time>2024-07-25T00:06:24.887Z</time>
      </trkpt>
      <trkpt lat="42.97483" lon="-0.16028">
        <ele>803.2</ele>
        <time>2024-07-25T00:07:01.666Z</time>
      </trkpt>
      <trkpt lat="42.97472" lon="-0.16075">
        <ele>805.7</ele>
        <time>2024-07-25T00:07:16.569Z</time>
      </trkpt>
      <trkpt lat="42.9745" lon="-0.16205">
        <ele>806.2</ele>
        <time>2024-07-25T00:07:49.337Z</time>
      </trkpt>
      <trkpt lat="42.97442" lon="-0.16274">
        <ele>805.4</ele>
        <time>2024-07-25T00:08:05.438Z</time>
      </trkpt>
      <trkpt lat="42.97441" lon="-0.16297">
        <ele>804.8</ele>
        <time>2024-07-25T00:08:10.442Z</time>
      </trkpt>
      <trkpt lat="42.97443" lon="-0.16307">
        <ele>804.3</ele>
        <time>2024-07-25T00:08:12.634Z</time>
      </trkpt>
      <trkpt lat="42.97446" lon="-0.16317">
        <ele>804</ele>
        <time>2024-07-25T00:08:14.965Z</time>
      </trkpt>
      <trkpt lat="42.97462" lon="-0.16353">
        <ele>802.7</ele>
        <time>2024-07-25T00:08:23.937Z</time>
      </trkpt>
      <trkpt lat="42.97472" lon="-0.16393">
        <ele>804.5</ele>
        <time>2024-07-25T00:08:36.242Z</time>
      </trkpt>
      <trkpt lat="42.97475" lon="-0.16427">
        <ele>806.6</ele>
        <time>2024-07-25T00:08:47.108Z</time>
      </trkpt>
      <trkpt lat="42.97474" lon="-0.16507">
        <ele>808.9</ele>
        <time>2024-07-25T00:09:09.001Z</time>
      </trkpt>
      <trkpt lat="42.97469" lon="-0.16527">
        <ele>809.1</ele>
        <time>2024-07-25T00:09:14.320Z</time>
      </trkpt>
      <trkpt lat="42.97464" lon="-0.16536">
        <ele>809.5</ele>
        <time>2024-07-25T00:09:17.504Z</time>
      </trkpt>
      <trkpt lat="42.97445" lon="-0.16557">
        <ele>810</ele>
        <time>2024-07-25T00:09:26.109Z</time>
      </trkpt>
      <trkpt lat="42.97435" lon="-0.16571">
        <ele>810</ele>
        <time>2024-07-25T00:09:30.839Z</time>
      </trkpt>
      <trkpt lat="42.97399" lon="-0.16644">
        <ele>810.6</ele>
        <time>2024-07-25T00:09:52.742Z</time>
      </trkpt>
      <trkpt lat="42.97391" lon="-0.16669">
        <ele>811</ele>
        <time>2024-07-25T00:09:59.763Z</time>
      </trkpt>
      <trkpt lat="42.97377" lon="-0.16744">
        <ele>811</ele>
        <time>2024-07-25T00:10:18.474Z</time>
      </trkpt>
      <trkpt lat="42.97349" lon="-0.16812">
        <ele>812.4</ele>
        <time>2024-07-25T00:10:38.839Z</time>
      </trkpt>
      <trkpt lat="42.97343" lon="-0.16831">
        <ele>812.7</ele>
        <time>2024-07-25T00:10:44.160Z</time>
        <extensions>
          <visugpx:TrkExtension xmlns:visugpx="https://www.visugpx.com/editgpx/">
            <visugpx:node>19</visugpx:node>
            </visugpx:TrkExtension>
        </extensions>
      </trkpt>
      <trkpt lat="42.97341" lon="-0.16851">
        <ele>812.7</ele>
        <time>2024-07-25T00:10:49.040Z</time>
      </trkpt>
      <trkpt lat="42.97347" lon="-0.16876">
        <ele>812.5</ele>
        <time>2024-07-25T00:10:55.201Z</time>
      </trkpt>
      <trkpt lat="42.97366" lon="-0.16919">
        <ele>812.7</ele>
        <time>2024-07-25T00:11:07.550Z</time>
      </trkpt>
      <trkpt lat="42.97381" lon="-0.16945">
        <ele>812.6</ele>
        <time>2024-07-25T00:11:15.453Z</time>
      </trkpt>
      <trkpt lat="42.97391" lon="-0.16958">
        <ele>812.9</ele>
        <time>2024-07-25T00:11:20.333Z</time>
      </trkpt>
      <trkpt lat="42.974" lon="-0.16965">
        <ele>813</ele>
        <time>2024-07-25T00:11:23.858Z</time>
      </trkpt>
      <trkpt lat="42.97412" lon="-0.16971">
        <ele>813</ele>
        <time>2024-07-25T00:11:28.079Z</time>
      </trkpt>
      <trkpt lat="42.97465" lon="-0.16992">
        <ele>812.9</ele>
        <time>2024-07-25T00:11:46.210Z</time>
      </trkpt>
      <trkpt lat="42.97524" lon="-0.17009">
        <ele>813.3</ele>
        <time>2024-07-25T00:12:06.544Z</time>
      </trkpt>
      <trkpt lat="42.97536" lon="-0.17016">
        <ele>813.3</ele>
        <time>2024-07-25T00:12:10.854Z</time>
      </trkpt>
      <trkpt lat="42.97547" lon="-0.17029">
        <ele>813.3</ele>
        <time>2024-07-25T00:12:15.659Z</time>
      </trkpt>
      <trkpt lat="42.97561" lon="-0.17059">
        <ele>813.6</ele>
        <time>2024-07-25T00:12:24.573Z</time>
      </trkpt>
      <trkpt lat="42.97573" lon="-0.17096">
        <ele>813.7</ele>
        <time>2024-07-25T00:12:34.459Z</time>
      </trkpt>
      <trkpt lat="42.97581" lon="-0.17129">
        <ele>814</ele>
        <time>2024-07-25T00:12:43.175Z</time>
      </trkpt>
      <trkpt lat="42.97596" lon="-0.17214">
        <ele>814.8</ele>
        <time>2024-07-25T00:13:05.147Z</time>
      </trkpt>
      <trkpt lat="42.97601" lon="-0.17234">
        <ele>815.2</ele>
        <time>2024-07-25T00:13:10.687Z</time>
      </trkpt>
      <trkpt lat="42.97608" lon="-0.17252">
        <ele>815.4</ele>
        <time>2024-07-25T00:13:15.823Z</time>
      </trkpt>
      <trkpt lat="42.97709" lon="-0.17414">
        <ele>819</ele>
        <time>2024-07-25T00:14:11.124Z</time>
      </trkpt>
      <trkpt lat="42.97721" lon="-0.17449">
        <ele>818.6</ele>
        <time>2024-07-25T00:14:20.072Z</time>
      </trkpt>
      <trkpt lat="42.97742" lon="-0.17553">
        <ele>822.5</ele>
        <time>2024-07-25T00:14:50.580Z</time>
      </trkpt>
      <trkpt lat="42.97753" lon="-0.17581">
        <ele>822.5</ele>
        <time>2024-07-25T00:14:58.262Z</time>
      </trkpt>
      <trkpt lat="42.97764" lon="-0.176">
        <ele>822.4</ele>
        <time>2024-07-25T00:15:04.019Z</time>
      </trkpt>
      <trkpt lat="42.97774" lon="-0.1761">
        <ele>822.2</ele>
        <time>2024-07-25T00:15:07.916Z</time>
      </trkpt>
      <trkpt lat="42.97788" lon="-0.17613">
        <ele>822.1</ele>
        <time>2024-07-25T00:15:12.498Z</time>
      </trkpt>
      <trkpt lat="42.97802" lon="-0.17609">
        <ele>821.9</ele>
        <time>2024-07-25T00:15:17.026Z</time>
        <extensions>
          <visugpx:TrkExtension xmlns:visugpx="https://www.visugpx.com/editgpx/">
            <visugpx:node>20</visugpx:node>
            </visugpx:TrkExtension>
        </extensions>
      </trkpt>
      <trkpt lat="42.97809" lon="-0.17604">
        <ele>822.8</ele>
        <time>2024-07-25T00:15:20.830Z</time>
      </trkpt>
      <trkpt lat="42.97813" lon="-0.17598">
        <ele>823.8</ele>
        <time>2024-07-25T00:15:24.322Z</time>
      </trkpt>
      <trkpt lat="42.97815" lon="-0.1759">
        <ele>824.2</ele>
        <time>2024-07-25T00:15:26.837Z</time>
      </trkpt>
      <trkpt lat="42.97816" lon="-0.17582">
        <ele>824.4</ele>
        <time>2024-07-25T00:15:29.017Z</time>
      </trkpt>
      <trkpt lat="42.97812" lon="-0.17489">
        <ele>824.2</ele>
        <time>2024-07-25T00:15:51.334Z</time>
      </trkpt>
      <trkpt lat="42.97815" lon="-0.17476">
        <ele>825.4</ele>
        <time>2024-07-25T00:15:56.248Z</time>
      </trkpt>
      <trkpt lat="42.97822" lon="-0.17468">
        <ele>828</ele>
        <time>2024-07-25T00:16:04.802Z</time>
      </trkpt>
      <trkpt lat="42.97823" lon="-0.17504">
        <ele>827.6</ele>
        <time>2024-07-25T00:16:13.117Z</time>
      </trkpt>
      <trkpt lat="42.97828" lon="-0.17575">
        <ele>828.3</ele>
        <time>2024-07-25T00:16:31.091Z</time>
      </trkpt>
      <trkpt lat="42.97827" lon="-0.17624">
        <ele>828.6</ele>
        <time>2024-07-25T00:16:43.250Z</time>
      </trkpt>
      <trkpt lat="42.97825" lon="-0.17642">
        <ele>828.7</ele>
        <time>2024-07-25T00:16:47.754Z</time>
      </trkpt>
      <trkpt lat="42.97817" lon="-0.17674">
        <ele>828.6</ele>
        <time>2024-07-25T00:16:55.828Z</time>
      </trkpt>
      <trkpt lat="42.97797" lon="-0.17729">
        <ele>829.3</ele>
        <time>2024-07-25T00:17:11.410Z</time>
      </trkpt>
      <trkpt lat="42.97766" lon="-0.17882">
        <ele>832.9</ele>
        <time>2024-07-25T00:17:53.705Z</time>
      </trkpt>
      <trkpt lat="42.97756" lon="-0.17948">
        <ele>835</ele>
        <time>2024-07-25T00:18:12.345Z</time>
      </trkpt>
      <trkpt lat="42.97747" lon="-0.18032">
        <ele>837.9</ele>
        <time>2024-07-25T00:18:36.139Z</time>
      </trkpt>
      <trkpt lat="42.97741" lon="-0.18067">
        <ele>838.8</ele>
        <time>2024-07-25T00:18:45.816Z</time>
      </trkpt>
      <trkpt lat="42.97731" lon="-0.18091">
        <ele>838.1</ele>
        <time>2024-07-25T00:18:51.830Z</time>
      </trkpt>
      <trkpt lat="42.97689" lon="-0.18168">
        <ele>838.4</ele>
        <time>2024-07-25T00:19:15.354Z</time>
      </trkpt>
      <trkpt lat="42.9765" lon="-0.18257">
        <ele>838.8</ele>
        <time>2024-07-25T00:19:40.842Z</time>
      </trkpt>
      <trkpt lat="42.97629" lon="-0.18327">
        <ele>840.8</ele>
        <time>2024-07-25T00:20:01.334Z</time>
      </trkpt>
      <trkpt lat="42.97598" lon="-0.18415">
        <ele>839.1</ele>
        <time>2024-07-25T00:20:23.299Z</time>
      </trkpt>
      <trkpt lat="42.97579" lon="-0.18486">
        <ele>839.3</ele>
        <time>2024-07-25T00:20:41.779Z</time>
      </trkpt>
      <trkpt lat="42.97568" lon="-0.18517">
        <ele>839.5</ele>
        <time>2024-07-25T00:20:50.314Z</time>
      </trkpt>
      <trkpt lat="42.97557" lon="-0.18537">
        <ele>839.8</ele>
        <time>2024-07-25T00:20:56.678Z</time>
      </trkpt>
      <trkpt lat="42.97526" lon="-0.18577">
        <ele>840.8</ele>
        <time>2024-07-25T00:21:11.834Z</time>
      </trkpt>
      <trkpt lat="42.97513" lon="-0.18601">
        <ele>842.2</ele>
        <time>2024-07-25T00:21:20.698Z</time>
      </trkpt>
      <trkpt lat="42.97506" lon="-0.18621">
        <ele>843.1</ele>
        <time>2024-07-25T00:21:27.094Z</time>
      </trkpt>
      <trkpt lat="42.97502" lon="-0.18638">
        <ele>843.9</ele>
        <time>2024-07-25T00:21:32.345Z</time>
      </trkpt>
      <trkpt lat="42.97492" lon="-0.18698">
        <ele>846.9</ele>
        <time>2024-07-25T00:21:50.767Z</time>
      </trkpt>
      <trkpt lat="42.97483" lon="-0.18718">
        <ele>847.6</ele>
        <time>2024-07-25T00:21:57.223Z</time>
      </trkpt>
      <trkpt lat="42.97463" lon="-0.18745">
        <ele>847.5</ele>
        <time>2024-07-25T00:22:06.409Z</time>
      </trkpt>
      <trkpt lat="42.97459" lon="-0.18753">
        <ele>847.5</ele>
        <time>2024-07-25T00:22:08.752Z</time>
      </trkpt>
      <trkpt lat="42.97454" lon="-0.18775">
        <ele>847.4</ele>
        <time>2024-07-25T00:22:14.220Z</time>
        <extensions>
          <visugpx:TrkExtension xmlns:visugpx="https://www.visugpx.com/editgpx/">
            <visugpx:node>21</visugpx:node>
            </visugpx:TrkExtension>
        </extensions>
      </trkpt>
      <trkpt lat="42.97453" lon="-0.1879">
        <ele>847.7</ele>
        <time>2024-07-25T00:22:18.185Z</time>
      </trkpt>
      <trkpt lat="42.9746" lon="-0.18822">
        <ele>848.9</ele>
        <time>2024-07-25T00:22:27.620Z</time>
      </trkpt>
      <trkpt lat="42.97476" lon="-0.18877">
        <ele>850.8</ele>
        <time>2024-07-25T00:22:44.059Z</time>
      </trkpt>
      <trkpt lat="42.97481" lon="-0.18905">
        <ele>852.4</ele>
        <time>2024-07-25T00:22:52.960Z</time>
      </trkpt>
      <trkpt lat="42.97482" lon="-0.1892">
        <ele>853.2</ele>
        <time>2024-07-25T00:22:57.560Z</time>
      </trkpt>
      <trkpt lat="42.9748" lon="-0.18943">
        <ele>853.8</ele>
        <time>2024-07-25T00:23:03.819Z</time>
      </trkpt>
      <trkpt lat="42.97463" lon="-0.19016">
        <ele>857.5</ele>
        <time>2024-07-25T00:23:26.706Z</time>
      </trkpt>
      <trkpt lat="42.97452" lon="-0.19086">
        <ele>860.7</ele>
        <time>2024-07-25T00:23:47.748Z</time>
      </trkpt>
      <trkpt lat="42.97439" lon="-0.19122">
        <ele>862.4</ele>
        <time>2024-07-25T00:23:59.422Z</time>
      </trkpt>
      <trkpt lat="42.97393" lon="-0.19222">
        <ele>865.3</ele>
        <time>2024-07-25T00:24:31.152Z</time>
      </trkpt>
      <trkpt lat="42.97379" lon="-0.1924">
        <ele>864.9</ele>
        <time>2024-07-25T00:24:37.113Z</time>
      </trkpt>
      <trkpt lat="42.97347" lon="-0.19274">
        <ele>863.8</ele>
        <time>2024-07-25T00:24:49.449Z</time>
      </trkpt>
      <trkpt lat="42.97339" lon="-0.19286">
        <ele>863.6</ele>
        <time>2024-07-25T00:24:53.177Z</time>
      </trkpt>
      <trkpt lat="42.97328" lon="-0.19321">
        <ele>863.6</ele>
        <time>2024-07-25T00:25:02.385Z</time>
      </trkpt>
      <trkpt lat="42.97313" lon="-0.19344">
        <ele>862.8</ele>
        <time>2024-07-25T00:25:09.078Z</time>
      </trkpt>
      <trkpt lat="42.97302" lon="-0.19365">
        <ele>862.7</ele>
        <time>2024-07-25T00:25:15.221Z</time>
      </trkpt>
      <trkpt lat="42.97296" lon="-0.19384">
        <ele>862.3</ele>
        <time>2024-07-25T00:25:19.839Z</time>
      </trkpt>
      <trkpt lat="42.97288" lon="-0.19428">
        <ele>862.5</ele>
        <time>2024-07-25T00:25:31.005Z</time>
      </trkpt>
      <trkpt lat="42.9728" lon="-0.19449">
        <ele>862.3</ele>
        <time>2024-07-25T00:25:36.530Z</time>
      </trkpt>
      <trkpt lat="42.97269" lon="-0.19471">
        <ele>862.3</ele>
        <time>2024-07-25T00:25:42.971Z</time>
      </trkpt>
      <trkpt lat="42.97248" lon="-0.19506">
        <ele>861.1</ele>
        <time>2024-07-25T00:25:52.782Z</time>
      </trkpt>
      <trkpt lat="42.97135" lon="-0.19673">
        <ele>853.7</ele>
        <time>2024-07-25T00:26:40.913Z</time>
      </trkpt>
      <trkpt lat="42.9709" lon="-0.19737">
        <ele>852</ele>
        <time>2024-07-25T00:27:00.735Z</time>
      </trkpt>
      <trkpt lat="42.97036" lon="-0.19806">
        <ele>850.6</ele>
        <time>2024-07-25T00:27:23.791Z</time>
      </trkpt>
      <trkpt lat="42.97027" lon="-0.1982">
        <ele>850.5</ele>
        <time>2024-07-25T00:27:28.196Z</time>
      </trkpt>
      <trkpt lat="42.97014" lon="-0.19844">
        <ele>850</ele>
        <time>2024-07-25T00:27:34.931Z</time>
      </trkpt>
      <trkpt lat="42.97004" lon="-0.19867">
        <ele>849.7</ele>
        <time>2024-07-25T00:27:41.103Z</time>
      </trkpt>
      <trkpt lat="42.96956" lon="-0.19999">
        <ele>855.4</ele>
        <time>2024-07-25T00:28:23.263Z</time>
      </trkpt>
      <trkpt lat="42.96949" lon="-0.20014">
        <ele>855.8</ele>
        <time>2024-07-25T00:28:27.999Z</time>
      </trkpt>
      <trkpt lat="42.96933" lon="-0.20042">
        <ele>855.8</ele>
        <time>2024-07-25T00:28:36.588Z</time>
      </trkpt>
      <trkpt lat="42.96848" lon="-0.20159">
        <ele>858.1</ele>
        <time>2024-07-25T00:29:18.885Z</time>
      </trkpt>
      <trkpt lat="42.9683" lon="-0.20179">
        <ele>858.3</ele>
        <time>2024-07-25T00:29:26.757Z</time>
      </trkpt>
      <trkpt lat="42.96807" lon="-0.20198">
        <ele>857.5</ele>
        <time>2024-07-25T00:29:34.872Z</time>
      </trkpt>
      <trkpt lat="42.96751" lon="-0.20229">
        <ele>857</ele>
        <time>2024-07-25T00:29:54.335Z</time>
      </trkpt>
      <trkpt lat="42.9672" lon="-0.20242">
        <ele>858.1</ele>
        <time>2024-07-25T00:30:06.254Z</time>
      </trkpt>
      <trkpt lat="42.96709" lon="-0.20245">
        <ele>858.1</ele>
        <time>2024-07-25T00:30:09.960Z</time>
      </trkpt>
      <trkpt lat="42.9666" lon="-0.20252">
        <ele>858.2</ele>
        <time>2024-07-25T00:30:26.339Z</time>
      </trkpt>
      <trkpt lat="42.96645" lon="-0.2025">
        <ele>858</ele>
        <time>2024-07-25T00:30:31.121Z</time>
        <extensions>
          <visugpx:TrkExtension xmlns:visugpx="https://www.visugpx.com/editgpx/">
            <visugpx:node>22</visugpx:node>
            </visugpx:TrkExtension>
        </extensions>
      </trkpt>
      <trkpt lat="42.96633" lon="-0.20244">
        <ele>857.8</ele>
        <time>2024-07-25T00:30:35.146Z</time>
      </trkpt>
      <trkpt lat="42.96602" lon="-0.20225">
        <ele>857.4</ele>
        <time>2024-07-25T00:30:45.974Z</time>
      </trkpt>
      <trkpt lat="42.96581" lon="-0.20219">
        <ele>857.9</ele>
        <time>2024-07-25T00:30:53.598Z</time>
      </trkpt>
      <trkpt lat="42.96545" lon="-0.20188">
        <ele>857.3</ele>
        <time>2024-07-25T00:31:07.064Z</time>
      </trkpt>
      <trkpt lat="42.96514" lon="-0.20171">
        <ele>857.2</ele>
        <time>2024-07-25T00:31:17.999Z</time>
      </trkpt>
      <trkpt lat="42.96506" lon="-0.20169">
        <ele>857.1</ele>
        <time>2024-07-25T00:31:20.587Z</time>
      </trkpt>
      <trkpt lat="42.96498" lon="-0.2017">
        <ele>857.1</ele>
        <time>2024-07-25T00:31:23.241Z</time>
      </trkpt>
      <trkpt lat="42.96473" lon="-0.20183">
        <ele>857.6</ele>
        <time>2024-07-25T00:31:32.608Z</time>
      </trkpt>
      <trkpt lat="42.96456" lon="-0.20188">
        <ele>857.8</ele>
        <time>2024-07-25T00:31:38.562Z</time>
        <extensions>
          <visugpx:TrkExtension xmlns:visugpx="https://www.visugpx.com/editgpx/">
            <visugpx:node>23</visugpx:node>
            </visugpx:TrkExtension>
        </extensions>
      </trkpt>
      <trkpt lat="42.96442" lon="-0.20184">
        <ele>857.6</ele>
        <time>2024-07-25T00:31:43.090Z</time>
      </trkpt>
      <trkpt lat="42.96416" lon="-0.20166">
        <ele>857</ele>
        <time>2024-07-25T00:31:52.135Z</time>
      </trkpt>
      <trkpt lat="42.96399" lon="-0.20161">
        <ele>856.8</ele>
        <time>2024-07-25T00:31:57.682Z</time>
      </trkpt>
      <trkpt lat="42.96372" lon="-0.2016">
        <ele>856.8</ele>
        <time>2024-07-25T00:32:06.606Z</time>
      </trkpt>
      <trkpt lat="42.96343" lon="-0.20166">
        <ele>857</ele>
        <time>2024-07-25T00:32:16.503Z</time>
      </trkpt>
      <trkpt lat="42.96328" lon="-0.20172">
        <ele>857.2</ele>
        <time>2024-07-25T00:32:21.876Z</time>
      </trkpt>
      <trkpt lat="42.96292" lon="-0.20191">
        <ele>858.4</ele>
        <time>2024-07-25T00:32:35.933Z</time>
      </trkpt>
      <trkpt lat="42.96177" lon="-0.20256">
        <ele>861.1</ele>
        <time>2024-07-25T00:33:19.929Z</time>
      </trkpt>
      <trkpt lat="42.96148" lon="-0.20277">
        <ele>861</ele>
        <time>2024-07-25T00:33:30.672Z</time>
      </trkpt>
      <trkpt lat="42.96135" lon="-0.2029">
        <ele>861.3</ele>
        <time>2024-07-25T00:33:36.312Z</time>
      </trkpt>
      <trkpt lat="42.96117" lon="-0.20313">
        <ele>861.2</ele>
        <time>2024-07-25T00:33:44.353Z</time>
      </trkpt>
      <trkpt lat="42.96101" lon="-0.20343">
        <ele>861</ele>
        <time>2024-07-25T00:33:53.128Z</time>
      </trkpt>
      <trkpt lat="42.96086" lon="-0.20379">
        <ele>861.1</ele>
        <time>2024-07-25T00:34:03.247Z</time>
      </trkpt>
      <trkpt lat="42.96013" lon="-0.20583">
        <ele>861.5</ele>
        <time>2024-07-25T00:34:58.561Z</time>
      </trkpt>
      <trkpt lat="42.96" lon="-0.20613">
        <ele>862.1</ele>
        <time>2024-07-25T00:35:07.633Z</time>
      </trkpt>
      <trkpt lat="42.95978" lon="-0.20651">
        <ele>862.3</ele>
        <time>2024-07-25T00:35:19.555Z</time>
        <extensions>
          <visugpx:TrkExtension xmlns:visugpx="https://www.visugpx.com/editgpx/">
            <visugpx:node>24</visugpx:node>
            </visugpx:TrkExtension>
        </extensions>
      </trkpt>
      <trkpt lat="42.95941" lon="-0.20704">
        <ele>862</ele>
        <time>2024-07-25T00:35:36.963Z</time>
      </trkpt>
      <trkpt lat="42.95917" lon="-0.20742">
        <ele>862.7</ele>
        <time>2024-07-25T00:35:49.842Z</time>
      </trkpt>
      <trkpt lat="42.95841" lon="-0.20885">
        <ele>865.9</ele>
        <time>2024-07-25T00:36:36.010Z</time>
      </trkpt>
      <trkpt lat="42.95818" lon="-0.20924">
        <ele>866.3</ele>
        <time>2024-07-25T00:36:48.537Z</time>
        <extensions>
          <visugpx:TrkExtension xmlns:visugpx="https://www.visugpx.com/editgpx/">
            <visugpx:node>25</visugpx:node>
            </visugpx:TrkExtension>
        </extensions>
      </trkpt>
      <trkpt lat="42.95723" lon="-0.21075">
        <ele>868.7</ele>
        <time>2024-07-25T00:37:39.215Z</time>
      </trkpt>
      <trkpt lat="42.95716" lon="-0.2109">
        <ele>868.8</ele>
        <time>2024-07-25T00:37:43.620Z</time>
      </trkpt>
      <trkpt lat="42.95698" lon="-0.21136">
        <ele>869.1</ele>
        <time>2024-07-25T00:37:56.544Z</time>
      </trkpt>
      <trkpt lat="42.95669" lon="-0.21223">
        <ele>870</ele>
        <time>2024-07-25T00:38:20.601Z</time>
      </trkpt>
      <trkpt lat="42.95665" lon="-0.21266">
        <ele>871</ele>
        <time>2024-07-25T00:38:32.172Z</time>
      </trkpt>
      <trkpt lat="42.95658" lon="-0.21298">
        <ele>871</ele>
        <time>2024-07-25T00:38:40.248Z</time>
      </trkpt>
      <trkpt lat="42.95649" lon="-0.21321">
        <ele>871.6</ele>
        <time>2024-07-25T00:38:47.208Z</time>
      </trkpt>
      <trkpt lat="42.95626" lon="-0.21356">
        <ele>872</ele>
        <time>2024-07-25T00:38:59.000Z</time>
      </trkpt>
      <trkpt lat="42.95619" lon="-0.2137">
        <ele>872.3</ele>
        <time>2024-07-25T00:39:03.421Z</time>
      </trkpt>
      <trkpt lat="42.95616" lon="-0.21366">
        <ele>872.2</ele>
        <time>2024-07-25T00:39:04.709Z</time>
        <extensions>
          <visugpx:TrkExtension xmlns:visugpx="https://www.visugpx.com/editgpx/">
            <visugpx:node>26</visugpx:node>
            </visugpx:TrkExtension>
        </extensions>
      </trkpt>
      <trkpt lat="42.95616" lon="-0.21389">
        <ele>873</ele>
        <time>2024-07-25T00:39:11.176Z</time>
      </trkpt>
      <trkpt lat="42.95617" lon="-0.21435">
        <ele>873.7</ele>
        <time>2024-07-25T00:39:23.049Z</time>
      </trkpt>
      <trkpt lat="42.95642" lon="-0.21507">
        <ele>876.4</ele>
        <time>2024-07-25T00:39:45.363Z</time>
      </trkpt>
      <trkpt lat="42.9566" lon="-0.21531">
        <ele>877.9</ele>
        <time>2024-07-25T00:39:55.417Z</time>
      </trkpt>
      <trkpt lat="42.95685" lon="-0.21551">
        <ele>879.5</ele>
        <time>2024-07-25T00:40:06.830Z</time>
      </trkpt>
      <trkpt lat="42.95692" lon="-0.21555">
        <ele>879.9</ele>
        <time>2024-07-25T00:40:09.795Z</time>
      </trkpt>
      <trkpt lat="42.95715" lon="-0.21563">
        <ele>882.6</ele>
        <time>2024-07-25T00:40:21.219Z</time>
      </trkpt>
      <trkpt lat="42.95727" lon="-0.21564">
        <ele>884</ele>
        <time>2024-07-25T00:40:27.061Z</time>
        <extensions>
          <visugpx:TrkExtension xmlns:visugpx="https://www.visugpx.com/editgpx/">
            <visugpx:node>27</visugpx:node>
            </visugpx:TrkExtension>
        </extensions>
      </trkpt>
      <trkpt lat="42.9574" lon="-0.2156">
        <ele>885.8</ele>
        <time>2024-07-25T00:40:33.986Z</time>
      </trkpt>
      <trkpt lat="42.95747" lon="-0.21555">
        <ele>886.5</ele>
        <time>2024-07-25T00:40:37.468Z</time>
      </trkpt>
      <trkpt lat="42.95771" lon="-0.21533">
        <ele>888.2</ele>
        <time>2024-07-25T00:40:48.990Z</time>
      </trkpt>
      <trkpt lat="42.958" lon="-0.21515">
        <ele>892.4</ele>
        <time>2024-07-25T00:41:05.350Z</time>
      </trkpt>
      <trkpt lat="42.9581" lon="-0.21504">
        <ele>893.8</ele>
        <time>2024-07-25T00:41:11.427Z</time>
      </trkpt>
      <trkpt lat="42.95815" lon="-0.21497">
        <ele>894.7</ele>
        <time>2024-07-25T00:41:15.023Z</time>
      </trkpt>
      <trkpt lat="42.95841" lon="-0.21447">
        <ele>898</ele>
        <time>2024-07-25T00:41:33.821Z</time>
      </trkpt>
      <trkpt lat="42.95847" lon="-0.21426">
        <ele>897.6</ele>
        <time>2024-07-25T00:41:38.885Z</time>
      </trkpt>
      <trkpt lat="42.95854" lon="-0.21377">
        <ele>897.3</ele>
        <time>2024-07-25T00:41:50.657Z</time>
      </trkpt>
      <trkpt lat="42.9586" lon="-0.21361">
        <ele>898.6</ele>
        <time>2024-07-25T00:41:56.665Z</time>
      </trkpt>
      <trkpt lat="42.95865" lon="-0.21354">
        <ele>900.1</ele>
        <time>2024-07-25T00:42:01.602Z</time>
      </trkpt>
      <trkpt lat="42.95885" lon="-0.21337">
        <ele>906</ele>
        <time>2024-07-25T00:42:20.755Z</time>
      </trkpt>
      <trkpt lat="42.95897" lon="-0.21324">
        <ele>909</ele>
        <time>2024-07-25T00:42:30.765Z</time>
      </trkpt>
      <trkpt lat="42.95924" lon="-0.21277">
        <ele>911.7</ele>
        <time>2024-07-25T00:42:48.368Z</time>
      </trkpt>
      <trkpt lat="42.95941" lon="-0.21253">
        <ele>911.8</ele>
        <time>2024-07-25T00:42:56.547Z</time>
      </trkpt>
      <trkpt lat="42.96" lon="-0.21187">
        <ele>918.9</ele>
        <time>2024-07-25T00:43:30.688Z</time>
      </trkpt>
      <trkpt lat="42.96011" lon="-0.21169">
        <ele>919</ele>
        <time>2024-07-25T00:43:36.461Z</time>
      </trkpt>
      <trkpt lat="42.96019" lon="-0.21144">
        <ele>918.9</ele>
        <time>2024-07-25T00:43:42.957Z</time>
      </trkpt>
      <trkpt lat="42.96027" lon="-0.21129">
        <ele>920.1</ele>
        <time>2024-07-25T00:43:48.940Z</time>
      </trkpt>
      <trkpt lat="42.96036" lon="-0.21122">
        <ele>921.3</ele>
        <time>2024-07-25T00:43:53.962Z</time>
      </trkpt>
      <trkpt lat="42.96045" lon="-0.21122">
        <ele>922.9</ele>
        <time>2024-07-25T00:43:59.447Z</time>
        <extensions>
          <visugpx:TrkExtension xmlns:visugpx="https://www.visugpx.com/editgpx/">
            <visugpx:node>28</visugpx:node>
            </visugpx:TrkExtension>
        </extensions>
      </trkpt>
      <trkpt lat="42.96053" lon="-0.21125">
        <ele>924.5</ele>
        <time>2024-07-25T00:44:04.806Z</time>
      </trkpt>
      <trkpt lat="42.96057" lon="-0.2113">
        <ele>925.4</ele>
        <time>2024-07-25T00:44:07.966Z</time>
      </trkpt>
      <trkpt lat="42.96062" lon="-0.21143">
        <ele>926.4</ele>
        <time>2024-07-25T00:44:12.777Z</time>
      </trkpt>
      <trkpt lat="42.96063" lon="-0.21152">
        <ele>927</ele>
        <time>2024-07-25T00:44:15.729Z</time>
      </trkpt>
      <trkpt lat="42.96063" lon="-0.21286">
        <ele>936.4</ele>
        <time>2024-07-25T00:45:00.056Z</time>
      </trkpt>
      <trkpt lat="42.9606" lon="-0.21318">
        <ele>938.4</ele>
        <time>2024-07-25T00:45:10.326Z</time>
      </trkpt>
      <trkpt lat="42.96053" lon="-0.21359">
        <ele>940.6</ele>
        <time>2024-07-25T00:45:23.137Z</time>
      </trkpt>
      <trkpt lat="42.96052" lon="-0.2137">
        <ele>941.3</ele>
        <time>2024-07-25T00:45:26.684Z</time>
      </trkpt>
      <trkpt lat="42.96053" lon="-0.21381">
        <ele>942.2</ele>
        <time>2024-07-25T00:45:30.550Z</time>
      </trkpt>
      <trkpt lat="42.96055" lon="-0.2139">
        <ele>942.9</ele>
        <time>2024-07-25T00:45:33.726Z</time>
      </trkpt>
      <trkpt lat="42.96062" lon="-0.21406">
        <ele>943.8</ele>
        <time>2024-07-25T00:45:39.295Z</time>
      </trkpt>
      <trkpt lat="42.96083" lon="-0.21434">
        <ele>948.2</ele>
        <time>2024-07-25T00:45:55.399Z</time>
      </trkpt>
      <trkpt lat="42.96091" lon="-0.21448">
        <ele>950.1</ele>
        <time>2024-07-25T00:46:02.434Z</time>
      </trkpt>
      <trkpt lat="42.96096" lon="-0.21463">
        <ele>952</ele>
        <time>2024-07-25T00:46:09.244Z</time>
      </trkpt>
      <trkpt lat="42.96099" lon="-0.21487">
        <ele>954.4</ele>
        <time>2024-07-25T00:46:18.490Z</time>
      </trkpt>
      <trkpt lat="42.96097" lon="-0.21545">
        <ele>958.2</ele>
        <time>2024-07-25T00:46:37.276Z</time>
      </trkpt>
      <trkpt lat="42.96088" lon="-0.21648">
        <ele>963.3</ele>
        <time>2024-07-25T00:47:08.395Z</time>
      </trkpt>
      <trkpt lat="42.96091" lon="-0.21701">
        <ele>966.6</ele>
        <time>2024-07-25T00:47:25.324Z</time>
      </trkpt>
      <trkpt lat="42.96088" lon="-0.21727">
        <ele>968.1</ele>
        <time>2024-07-25T00:47:33.510Z</time>
      </trkpt>
      <trkpt lat="42.9608" lon="-0.21764">
        <ele>970</ele>
        <time>2024-07-25T00:47:45.089Z</time>
      </trkpt>
      <trkpt lat="42.96079" lon="-0.21778">
        <ele>971.4</ele>
        <time>2024-07-25T00:47:50.456Z</time>
      </trkpt>
      <trkpt lat="42.96084" lon="-0.21823">
        <ele>975.2</ele>
        <time>2024-07-25T00:48:06.507Z</time>
      </trkpt>
      <trkpt lat="42.96084" lon="-0.21837">
        <ele>975.7</ele>
        <time>2024-07-25T00:48:10.459Z</time>
      </trkpt>
      <trkpt lat="42.96081" lon="-0.21856">
        <ele>977.8</ele>
        <time>2024-07-25T00:48:18.200Z</time>
      </trkpt>
      <trkpt lat="42.96069" lon="-0.21888">
        <ele>976.8</ele>
        <time>2024-07-25T00:48:25.954Z</time>
      </trkpt>
      <trkpt lat="42.96066" lon="-0.21913">
        <ele>976</ele>
        <time>2024-07-25T00:48:31.337Z</time>
      </trkpt>
      <trkpt lat="42.96069" lon="-0.21931">
        <ele>976.6</ele>
        <time>2024-07-25T00:48:36.474Z</time>
      </trkpt>
      <trkpt lat="42.96081" lon="-0.2198">
        <ele>977.7</ele>
        <time>2024-07-25T00:48:50.160Z</time>
      </trkpt>
      <trkpt lat="42.96085" lon="-0.22006">
        <ele>977</ele>
        <time>2024-07-25T00:48:55.924Z</time>
      </trkpt>
      <trkpt lat="42.96086" lon="-0.22024">
        <ele>976</ele>
        <time>2024-07-25T00:48:59.743Z</time>
      </trkpt>
      <trkpt lat="42.96089" lon="-0.22038">
        <ele>976.6</ele>
        <time>2024-07-25T00:49:03.962Z</time>
      </trkpt>
      <trkpt lat="42.96095" lon="-0.22048">
        <ele>978.4</ele>
        <time>2024-07-25T00:49:10.012Z</time>
      </trkpt>
      <trkpt lat="42.96099" lon="-0.22051">
        <ele>979.5</ele>
        <time>2024-07-25T00:49:13.583Z</time>
      </trkpt>
      <trkpt lat="42.96107" lon="-0.22052">
        <ele>981.8</ele>
        <time>2024-07-25T00:49:21.158Z</time>
        <extensions>
          <visugpx:TrkExtension xmlns:visugpx="https://www.visugpx.com/editgpx/">
            <visugpx:node>29</visugpx:node>
            </visugpx:TrkExtension>
        </extensions>
      </trkpt>
      <trkpt lat="42.96113" lon="-0.22051">
        <ele>983.5</ele>
        <time>2024-07-25T00:49:26.738Z</time>
      </trkpt>
      <trkpt lat="42.96121" lon="-0.22043">
        <ele>985.7</ele>
        <time>2024-07-25T00:49:33.919Z</time>
      </trkpt>
      <trkpt lat="42.96126" lon="-0.22028">
        <ele>987.3</ele>
        <time>2024-07-25T00:49:40.132Z</time>
      </trkpt>
      <trkpt lat="42.96126" lon="-0.22019">
        <ele>987.9</ele>
        <time>2024-07-25T00:49:43.061Z</time>
      </trkpt>
      <trkpt lat="42.96118" lon="-0.21979">
        <ele>989.1</ele>
        <time>2024-07-25T00:49:54.419Z</time>
      </trkpt>
      <trkpt lat="42.96118" lon="-0.21967">
        <ele>990.1</ele>
        <time>2024-07-25T00:49:58.648Z</time>
      </trkpt>
      <trkpt lat="42.96121" lon="-0.21948">
        <ele>991.9</ele>
        <time>2024-07-25T00:50:05.815Z</time>
      </trkpt>
      <trkpt lat="42.96128" lon="-0.21934">
        <ele>993.6</ele>
        <time>2024-07-25T00:50:12.309Z</time>
      </trkpt>
      <trkpt lat="42.96138" lon="-0.21926">
        <ele>995.8</ele>
        <time>2024-07-25T00:50:19.707Z</time>
      </trkpt>
      <trkpt lat="42.96145" lon="-0.21924">
        <ele>996.7</ele>
        <time>2024-07-25T00:50:23.301Z</time>
      </trkpt>
      <trkpt lat="42.9616" lon="-0.21925">
        <ele>998.5</ele>
        <time>2024-07-25T00:50:30.688Z</time>
      </trkpt>
      <trkpt lat="42.96206" lon="-0.21937">
        <ele>1006.8</ele>
        <time>2024-07-25T00:50:59.171Z</time>
      </trkpt>
      <trkpt lat="42.96217" lon="-0.21936">
        <ele>1008.9</ele>
        <time>2024-07-25T00:51:06.226Z</time>
      </trkpt>
      <trkpt lat="42.96226" lon="-0.21929">
        <ele>1011</ele>
        <time>2024-07-25T00:51:13.180Z</time>
        <extensions>
          <visugpx:TrkExtension xmlns:visugpx="https://www.visugpx.com/editgpx/">
            <visugpx:node>30</visugpx:node>
            </visugpx:TrkExtension>
        </extensions>
      </trkpt>
      <trkpt lat="42.96231" lon="-0.21916">
        <ele>1012.2</ele>
        <time>2024-07-25T00:51:18.315Z</time>
      </trkpt>
      <trkpt lat="42.96232" lon="-0.21903">
        <ele>1012.1</ele>
        <time>2024-07-25T00:51:21.376Z</time>
      </trkpt>
      <trkpt lat="42.96221" lon="-0.21865">
        <ele>1008.7</ele>
        <time>2024-07-25T00:51:30.021Z</time>
      </trkpt>
      <trkpt lat="42.96222" lon="-0.21844">
        <ele>1009.5</ele>
        <time>2024-07-25T00:51:36.023Z</time>
      </trkpt>
      <trkpt lat="42.96234" lon="-0.2181">
        <ele>1012.1</ele>
        <time>2024-07-25T00:51:48.435Z</time>
      </trkpt>
      <trkpt lat="42.96238" lon="-0.21803">
        <ele>1013</ele>
        <time>2024-07-25T00:51:51.855Z</time>
      </trkpt>
      <trkpt lat="42.96247" lon="-0.21793">
        <ele>1015.2</ele>
        <time>2024-07-25T00:51:59.255Z</time>
      </trkpt>
      <trkpt lat="42.96253" lon="-0.2179">
        <ele>1016.3</ele>
        <time>2024-07-25T00:52:03.066Z</time>
      </trkpt>
      <trkpt lat="42.96263" lon="-0.21789">
        <ele>1017.5</ele>
        <time>2024-07-25T00:52:07.995Z</time>
      </trkpt>
      <trkpt lat="42.96269" lon="-0.2179">
        <ele>1018.5</ele>
        <time>2024-07-25T00:52:11.511Z</time>
      </trkpt>
      <trkpt lat="42.9628" lon="-0.21797">
        <ele>1020.9</ele>
        <time>2024-07-25T00:52:19.501Z</time>
      </trkpt>
      <trkpt lat="42.96286" lon="-0.21806">
        <ele>1021.9</ele>
        <time>2024-07-25T00:52:23.766Z</time>
      </trkpt>
      <trkpt lat="42.96288" lon="-0.21812">
        <ele>1022.2</ele>
        <time>2024-07-25T00:52:25.711Z</time>
      </trkpt>
      <trkpt lat="42.9629" lon="-0.2185">
        <ele>1026.2</ele>
        <time>2024-07-25T00:52:40.651Z</time>
      </trkpt>
      <trkpt lat="42.96295" lon="-0.21865">
        <ele>1028</ele>
        <time>2024-07-25T00:52:47.254Z</time>
      </trkpt>
      <trkpt lat="42.96299" lon="-0.21871">
        <ele>1028.8</ele>
        <time>2024-07-25T00:52:50.336Z</time>
      </trkpt>
      <trkpt lat="42.96309" lon="-0.21877">
        <ele>1030.6</ele>
        <time>2024-07-25T00:52:56.672Z</time>
      </trkpt>
      <trkpt lat="42.96315" lon="-0.21878">
        <ele>1031.4</ele>
        <time>2024-07-25T00:52:59.783Z</time>
      </trkpt>
      <trkpt lat="42.96328" lon="-0.21874">
        <ele>1032.7</ele>
        <time>2024-07-25T00:53:05.842Z</time>
      </trkpt>
      <trkpt lat="42.96344" lon="-0.2186">
        <ele>1034.1</ele>
        <time>2024-07-25T00:53:13.802Z</time>
      </trkpt>
      <trkpt lat="42.96429" lon="-0.21764">
        <ele>1038.7</ele>
        <time>2024-07-25T00:53:55.368Z</time>
      </trkpt>
      <trkpt lat="42.9648" lon="-0.21712">
        <ele>1044.9</ele>
        <time>2024-07-25T00:54:24.290Z</time>
      </trkpt>
      <trkpt lat="42.96536" lon="-0.21642">
        <ele>1052.1</ele>
        <time>2024-07-25T00:54:58.478Z</time>
      </trkpt>
      <trkpt lat="42.96543" lon="-0.21635">
        <ele>1052.9</ele>
        <time>2024-07-25T00:55:02.350Z</time>
      </trkpt>
      <trkpt lat="42.96551" lon="-0.2163">
        <ele>1054.1</ele>
        <time>2024-07-25T00:55:06.944Z</time>
      </trkpt>
      <trkpt lat="42.96579" lon="-0.21617">
        <ele>1059.4</ele>
        <time>2024-07-25T00:55:25.067Z</time>
      </trkpt>
      <trkpt lat="42.96585" lon="-0.21612">
        <ele>1060.4</ele>
        <time>2024-07-25T00:55:28.817Z</time>
      </trkpt>
      <trkpt lat="42.96594" lon="-0.21599">
        <ele>1061.2</ele>
        <time>2024-07-25T00:55:34.077Z</time>
      </trkpt>
      <trkpt lat="42.96612" lon="-0.21543">
        <ele>1059.9</ele>
        <time>2024-07-25T00:55:47.621Z</time>
      </trkpt>
      <trkpt lat="42.96618" lon="-0.2153">
        <ele>1059.7</ele>
        <time>2024-07-25T00:55:51.141Z</time>
      </trkpt>
      <trkpt lat="42.96626" lon="-0.21522">
        <ele>1060.3</ele>
        <time>2024-07-25T00:55:55.115Z</time>
      </trkpt>
      <trkpt lat="42.9663" lon="-0.21521">
        <ele>1060.9</ele>
        <time>2024-07-25T00:55:57.328Z</time>
      </trkpt>
      <trkpt lat="42.96639" lon="-0.21524">
        <ele>1063.3</ele>
        <time>2024-07-25T00:56:05.130Z</time>
        <extensions>
          <visugpx:TrkExtension xmlns:visugpx="https://www.visugpx.com/editgpx/">
            <visugpx:node>31</visugpx:node>
            </visugpx:TrkExtension>
        </extensions>
      </trkpt>
      <trkpt lat="42.96646" lon="-0.21531">
        <ele>1065.8</ele>
        <time>2024-07-25T00:56:13.374Z</time>
      </trkpt>
      <trkpt lat="42.96649" lon="-0.21543">
        <ele>1068.4</ele>
        <time>2024-07-25T00:56:21.904Z</time>
      </trkpt>
      <trkpt lat="42.96649" lon="-0.2155">
        <ele>1069.6</ele>
        <time>2024-07-25T00:56:25.803Z</time>
      </trkpt>
      <trkpt lat="42.9664" lon="-0.21588">
        <ele>1071.6</ele>
        <time>2024-07-25T00:56:37.835Z</time>
      </trkpt>
      <trkpt lat="42.9664" lon="-0.2164">
        <ele>1075.5</ele>
        <time>2024-07-25T00:56:55.437Z</time>
      </trkpt>
      <trkpt lat="42.96635" lon="-0.21687">
        <ele>1080.9</ele>
        <time>2024-07-25T00:57:14.900Z</time>
      </trkpt>
      <trkpt lat="42.9663" lon="-0.21717">
        <ele>1084.6</ele>
        <time>2024-07-25T00:57:27.940Z</time>
      </trkpt>
      <trkpt lat="42.96615" lon="-0.21762">
        <ele>1087.9</ele>
        <time>2024-07-25T00:57:44.034Z</time>
      </trkpt>
      <trkpt lat="42.9661" lon="-0.21785">
        <ele>1089.7</ele>
        <time>2024-07-25T00:57:52.157Z</time>
      </trkpt>
      <trkpt lat="42.96607" lon="-0.21824">
        <ele>1094</ele>
        <time>2024-07-25T00:58:07.901Z</time>
      </trkpt>
      <trkpt lat="42.96593" lon="-0.21901">
        <ele>1098.9</ele>
        <time>2024-07-25T00:58:33.129Z</time>
      </trkpt>
      <trkpt lat="42.96592" lon="-0.21941">
        <ele>1105.4</ele>
        <time>2024-07-25T00:58:54.346Z</time>
      </trkpt>
      <trkpt lat="42.96588" lon="-0.21972">
        <ele>1109</ele>
        <time>2024-07-25T00:59:07.289Z</time>
      </trkpt>
      <trkpt lat="42.96582" lon="-0.21989">
        <ele>1109.4</ele>
        <time>2024-07-25T00:59:12.286Z</time>
      </trkpt>
      <trkpt lat="42.96571" lon="-0.22008">
        <ele>1107.4</ele>
        <time>2024-07-25T00:59:17.411Z</time>
      </trkpt>
      <trkpt lat="42.96561" lon="-0.2203">
        <ele>1106.3</ele>
        <time>2024-07-25T00:59:22.890Z</time>
      </trkpt>
      <trkpt lat="42.96556" lon="-0.2205">
        <ele>1107.2</ele>
        <time>2024-07-25T00:59:29.043Z</time>
      </trkpt>
      <trkpt lat="42.96552" lon="-0.22077">
        <ele>1109.1</ele>
        <time>2024-07-25T00:59:38.105Z</time>
      </trkpt>
      <trkpt lat="42.9655" lon="-0.22115">
        <ele>1113.1</ele>
        <time>2024-07-25T00:59:53.044Z</time>
      </trkpt>
      <trkpt lat="42.96553" lon="-0.22133">
        <ele>1116.2</ele>
        <time>2024-07-25T01:00:03.131Z</time>
      </trkpt>
      <trkpt lat="42.96564" lon="-0.22174">
        <ele>1119.6</ele>
        <time>2024-07-25T01:00:18.118Z</time>
      </trkpt>
      <trkpt lat="42.96563" lon="-0.22195">
        <ele>1118.3</ele>
        <time>2024-07-25T01:00:22.569Z</time>
      </trkpt>
      <trkpt lat="42.96556" lon="-0.2222">
        <ele>1118</ele>
        <time>2024-07-25T01:00:28.746Z</time>
      </trkpt>
      <trkpt lat="42.96514" lon="-0.22332">
        <ele>1122.8</ele>
        <time>2024-07-25T01:01:04.658Z</time>
      </trkpt>
      <trkpt lat="42.96509" lon="-0.22357">
        <ele>1124.2</ele>
        <time>2024-07-25T01:01:12.608Z</time>
      </trkpt>
      <trkpt lat="42.9651" lon="-0.2237">
        <ele>1125.5</ele>
        <time>2024-07-25T01:01:17.594Z</time>
        <extensions>
          <visugpx:TrkExtension xmlns:visugpx="https://www.visugpx.com/editgpx/">
            <visugpx:node>32</visugpx:node>
            </visugpx:TrkExtension>
        </extensions>
      </trkpt>
      <trkpt lat="42.96514" lon="-0.22383">
        <ele>1127.1</ele>
        <time>2024-07-25T01:01:23.366Z</time>
      </trkpt>
      <trkpt lat="42.96519" lon="-0.2239">
        <ele>1128.5</ele>
        <time>2024-07-25T01:01:28.039Z</time>
      </trkpt>
      <trkpt lat="42.96525" lon="-0.22395">
        <ele>1129.8</ele>
        <time>2024-07-25T01:01:32.442Z</time>
      </trkpt>
      <trkpt lat="42.96542" lon="-0.22401">
        <ele>1132</ele>
        <time>2024-07-25T01:01:41.249Z</time>
      </trkpt>
      <trkpt lat="42.96573" lon="-0.22402">
        <ele>1134.4</ele>
        <time>2024-07-25T01:01:54.406Z</time>
      </trkpt>
      <trkpt lat="42.96584" lon="-0.224">
        <ele>1135</ele>
        <time>2024-07-25T01:01:58.761Z</time>
      </trkpt>
      <trkpt lat="42.96608" lon="-0.2239">
        <ele>1135.9</ele>
        <time>2024-07-25T01:02:08.041Z</time>
      </trkpt>
      <trkpt lat="42.96625" lon="-0.22386">
        <ele>1136.9</ele>
        <time>2024-07-25T01:02:14.899Z</time>
      </trkpt>
      <trkpt lat="42.96644" lon="-0.22388">
        <ele>1137.3</ele>
        <time>2024-07-25T01:02:21.621Z</time>
      </trkpt>
      <trkpt lat="42.96652" lon="-0.22391">
        <ele>1137.5</ele>
        <time>2024-07-25T01:02:24.577Z</time>
      </trkpt>
      <trkpt lat="42.96675" lon="-0.22406">
        <ele>1139.2</ele>
        <time>2024-07-25T01:02:35.007Z</time>
      </trkpt>
      <trkpt lat="42.96692" lon="-0.22427">
        <ele>1140.9</ele>
        <time>2024-07-25T01:02:44.625Z</time>
      </trkpt>
      <trkpt lat="42.96715" lon="-0.2246">
        <ele>1143.5</ele>
        <time>2024-07-25T01:02:58.801Z</time>
      </trkpt>
      <trkpt lat="42.96726" lon="-0.22483">
        <ele>1145.7</ele>
        <time>2024-07-25T01:03:08.332Z</time>
      </trkpt>
      <trkpt lat="42.9673" lon="-0.22507">
        <ele>1147.5</ele>
        <time>2024-07-25T01:03:16.590Z</time>
      </trkpt>
      <trkpt lat="42.96727" lon="-0.22533">
        <ele>1149.4</ele>
        <time>2024-07-25T01:03:25.381Z</time>
      </trkpt>
      <trkpt lat="42.96719" lon="-0.22572">
        <ele>1152.9</ele>
        <time>2024-07-25T01:03:39.868Z</time>
      </trkpt>
      <trkpt lat="42.96709" lon="-0.22641">
        <ele>1157.2</ele>
        <time>2024-07-25T01:04:02.168Z</time>
      </trkpt>
      <trkpt lat="42.96711" lon="-0.22666">
        <ele>1158.9</ele>
        <time>2024-07-25T01:04:10.387Z</time>
      </trkpt>
      <trkpt lat="42.96719" lon="-0.22698">
        <ele>1161.5</ele>
        <time>2024-07-25T01:04:21.938Z</time>
      </trkpt>
      <trkpt lat="42.9672" lon="-0.22711">
        <ele>1162.2</ele>
        <time>2024-07-25T01:04:25.939Z</time>
      </trkpt>
      <trkpt lat="42.96719" lon="-0.22724">
        <ele>1162.6</ele>
        <time>2024-07-25T01:04:29.546Z</time>
      </trkpt>
      <trkpt lat="42.96716" lon="-0.22737">
        <ele>1163.1</ele>
        <time>2024-07-25T01:04:33.410Z</time>
        <extensions>
          <visugpx:TrkExtension xmlns:visugpx="https://www.visugpx.com/editgpx/">
            <visugpx:node>33</visugpx:node>
            </visugpx:TrkExtension>
        </extensions>
      </trkpt>
      <trkpt lat="42.9671" lon="-0.2275">
        <ele>1163.2</ele>
        <time>2024-07-25T01:04:37.229Z</time>
      </trkpt>
      <trkpt lat="42.96698" lon="-0.22765">
        <ele>1164.1</ele>
        <time>2024-07-25T01:04:43.639Z</time>
      </trkpt>
      <trkpt lat="42.96673" lon="-0.22786">
        <ele>1166.6</ele>
        <time>2024-07-25T01:04:56.425Z</time>
      </trkpt>
      <trkpt lat="42.96665" lon="-0.22791">
        <ele>1167.1</ele>
        <time>2024-07-25T01:04:59.909Z</time>
      </trkpt>
      <trkpt lat="42.96658" lon="-0.22793">
        <ele>1168.1</ele>
        <time>2024-07-25T01:05:03.690Z</time>
      </trkpt>
      <trkpt lat="42.9665" lon="-0.22794">
        <ele>1169.1</ele>
        <time>2024-07-25T01:05:07.708Z</time>
      </trkpt>
      <trkpt lat="42.96636" lon="-0.22789">
        <ele>1170</ele>
        <time>2024-07-25T01:05:13.542Z</time>
      </trkpt>
      <trkpt lat="42.96604" lon="-0.22762">
        <ele>1171.1</ele>
        <time>2024-07-25T01:05:27.160Z</time>
      </trkpt>
      <trkpt lat="42.96595" lon="-0.22757">
        <ele>1171.5</ele>
        <time>2024-07-25T01:05:30.816Z</time>
      </trkpt>
      <trkpt lat="42.96587" lon="-0.22755">
        <ele>1172.1</ele>
        <time>2024-07-25T01:05:34.225Z</time>
      </trkpt>
      <trkpt lat="42.96577" lon="-0.22755">
        <ele>1172.4</ele>
        <time>2024-07-25T01:05:37.854Z</time>
      </trkpt>
      <trkpt lat="42.96568" lon="-0.22757">
        <ele>1172.5</ele>
        <time>2024-07-25T01:05:40.971Z</time>
      </trkpt>
      <trkpt lat="42.96559" lon="-0.22762">
        <ele>1173.2</ele>
        <time>2024-07-25T01:05:45.019Z</time>
      </trkpt>
      <trkpt lat="42.96552" lon="-0.22769">
        <ele>1173.8</ele>
        <time>2024-07-25T01:05:48.599Z</time>
      </trkpt>
      <trkpt lat="42.96542" lon="-0.22788">
        <ele>1175</ele>
        <time>2024-07-25T01:05:55.688Z</time>
      </trkpt>
      <trkpt lat="42.96506" lon="-0.22905">
        <ele>1190.3</ele>
        <time>2024-07-25T01:06:49.558Z</time>
      </trkpt>
      <trkpt lat="42.96498" lon="-0.22925">
        <ele>1193</ele>
        <time>2024-07-25T01:06:59.129Z</time>
      </trkpt>
      <trkpt lat="42.96487" lon="-0.22943">
        <ele>1193.9</ele>
        <time>2024-07-25T01:07:05.828Z</time>
      </trkpt>
      <trkpt lat="42.9648" lon="-0.22951">
        <ele>1194</ele>
        <time>2024-07-25T01:07:08.947Z</time>
      </trkpt>
      <trkpt lat="42.96448" lon="-0.22979">
        <ele>1194.3</ele>
        <time>2024-07-25T01:07:21.811Z</time>
      </trkpt>
      <trkpt lat="42.96435" lon="-0.22996">
        <ele>1196.7</ele>
        <time>2024-07-25T01:07:31.104Z</time>
      </trkpt>
      <trkpt lat="42.96428" lon="-0.23013">
        <ele>1198.5</ele>
        <time>2024-07-25T01:07:38.285Z</time>
      </trkpt>
      <trkpt lat="42.96418" lon="-0.23066">
        <ele>1206.1</ele>
        <time>2024-07-25T01:08:03.847Z</time>
      </trkpt>
      <trkpt lat="42.96413" lon="-0.23076">
        <ele>1207.4</ele>
        <time>2024-07-25T01:08:08.652Z</time>
      </trkpt>
      <trkpt lat="42.96406" lon="-0.23082">
        <ele>1208</ele>
        <time>2024-07-25T01:08:12.102Z</time>
        <extensions>
          <visugpx:TrkExtension xmlns:visugpx="https://www.visugpx.com/editgpx/">
            <visugpx:node>34</visugpx:node>
            </visugpx:TrkExtension>
        </extensions>
      </trkpt>
      <trkpt lat="42.96401" lon="-0.23086">
        <ele>1208.3</ele>
        <time>2024-07-25T01:08:14.359Z</time>
      </trkpt>
      <trkpt lat="42.96387" lon="-0.23089">
        <ele>1208.1</ele>
        <time>2024-07-25T01:08:18.843Z</time>
      </trkpt>
      <trkpt lat="42.96372" lon="-0.23086">
        <ele>1208.1</ele>
        <time>2024-07-25T01:08:23.852Z</time>
      </trkpt>
      <trkpt lat="42.96359" lon="-0.23086">
        <ele>1208.4</ele>
        <time>2024-07-25T01:08:28.468Z</time>
      </trkpt>
      <trkpt lat="42.96352" lon="-0.23087">
        <ele>1208.4</ele>
        <time>2024-07-25T01:08:30.793Z</time>
      </trkpt>
      <trkpt lat="42.96346" lon="-0.2309">
        <ele>1208.8</ele>
        <time>2024-07-25T01:08:33.373Z</time>
      </trkpt>
      <trkpt lat="42.96339" lon="-0.23095">
        <ele>1209.6</ele>
        <time>2024-07-25T01:08:37.011Z</time>
      </trkpt>
      <trkpt lat="42.96293" lon="-0.23141">
        <ele>1215.9</ele>
        <time>2024-07-25T01:09:04.135Z</time>
      </trkpt>
      <trkpt lat="42.96283" lon="-0.23154">
        <ele>1217</ele>
        <time>2024-07-25T01:09:10.037Z</time>
      </trkpt>
      <trkpt lat="42.96276" lon="-0.23165">
        <ele>1218</ele>
        <time>2024-07-25T01:09:14.824Z</time>
      </trkpt>
      <trkpt lat="42.96266" lon="-0.23189">
        <ele>1220.3</ele>
        <time>2024-07-25T01:09:24.554Z</time>
      </trkpt>
      <trkpt lat="42.96237" lon="-0.23297">
        <ele>1226.7</ele>
        <time>2024-07-25T01:10:00.107Z</time>
      </trkpt>
      <trkpt lat="42.96234" lon="-0.23325">
        <ele>1228.8</ele>
        <time>2024-07-25T01:10:09.651Z</time>
      </trkpt>
      <trkpt lat="42.96237" lon="-0.23356">
        <ele>1231</ele>
        <time>2024-07-25T01:10:20.005Z</time>
      </trkpt>
      <trkpt lat="42.96241" lon="-0.23372">
        <ele>1232.3</ele>
        <time>2024-07-25T01:10:25.780Z</time>
      </trkpt>
      <trkpt lat="42.96269" lon="-0.23456">
        <ele>1238.2</ele>
        <time>2024-07-25T01:10:55.430Z</time>
      </trkpt>
      <trkpt lat="42.96307" lon="-0.23593">
        <ele>1245</ele>
        <time>2024-07-25T01:11:38.833Z</time>
      </trkpt>
      <trkpt lat="42.96321" lon="-0.23631">
        <ele>1251.6</ele>
        <time>2024-07-25T01:12:00.512Z</time>
      </trkpt>
      <trkpt lat="42.96353" lon="-0.23693">
        <ele>1258.8</ele>
        <time>2024-07-25T01:12:28.804Z</time>
      </trkpt>
      <trkpt lat="42.96368" lon="-0.23733">
        <ele>1260.7</ele>
        <time>2024-07-25T01:12:41.871Z</time>
      </trkpt>
      <trkpt lat="42.96397" lon="-0.23822">
        <ele>1269.5</ele>
        <time>2024-07-25T01:13:17.392Z</time>
      </trkpt>
      <trkpt lat="42.964" lon="-0.23836">
        <ele>1271</ele>
        <time>2024-07-25T01:13:23.051Z</time>
      </trkpt>
      <trkpt lat="42.96401" lon="-0.23857">
        <ele>1272.6</ele>
        <time>2024-07-25T01:13:30.210Z</time>
      </trkpt>
      <trkpt lat="42.964" lon="-0.23865">
        <ele>1272.7</ele>
        <time>2024-07-25T01:13:32.278Z</time>
      </trkpt>
      <trkpt lat="42.9639" lon="-0.23895">
        <ele>1271.8</ele>
        <time>2024-07-25T01:13:39.402Z</time>
      </trkpt>
      <trkpt lat="42.9639" lon="-0.23918">
        <ele>1273.3</ele>
        <time>2024-07-25T01:13:46.835Z</time>
      </trkpt>
      <trkpt lat="42.96392" lon="-0.23931">
        <ele>1274.3</ele>
        <time>2024-07-25T01:13:51.338Z</time>
      </trkpt>
      <trkpt lat="42.96398" lon="-0.23951">
        <ele>1276.1</ele>
        <time>2024-07-25T01:13:58.952Z</time>
      </trkpt>
      <trkpt lat="42.96413" lon="-0.23981">
        <ele>1278.4</ele>
        <time>2024-07-25T01:14:10.590Z</time>
        <extensions>
          <visugpx:TrkExtension xmlns:visugpx="https://www.visugpx.com/editgpx/">
            <visugpx:node>35</visugpx:node>
            </visugpx:TrkExtension>
        </extensions>
      </trkpt>
      <trkpt lat="42.96417" lon="-0.24001">
        <ele>1279.2</ele>
        <time>2024-07-25T01:14:16.518Z</time>
      </trkpt>
      <trkpt lat="42.96416" lon="-0.24011">
        <ele>1279.7</ele>
        <time>2024-07-25T01:14:19.551Z</time>
      </trkpt>
      <trkpt lat="42.96411" lon="-0.24028">
        <ele>1280.4</ele>
        <time>2024-07-25T01:14:24.781Z</time>
      </trkpt>
      <trkpt lat="42.96381" lon="-0.24082">
        <ele>1287.9</ele>
        <time>2024-07-25T01:14:52.134Z</time>
      </trkpt>
      <trkpt lat="42.9637" lon="-0.24097">
        <ele>1289.8</ele>
        <time>2024-07-25T01:14:59.844Z</time>
      </trkpt>
      <trkpt lat="42.96357" lon="-0.24104">
        <ele>1290.5</ele>
        <time>2024-07-25T01:15:05.257Z</time>
      </trkpt>
      <trkpt lat="42.96349" lon="-0.24106">
        <ele>1290.9</ele>
        <time>2024-07-25T01:15:08.398Z</time>
      </trkpt>
      <trkpt lat="42.96324" lon="-0.24106">
        <ele>1291.2</ele>
        <time>2024-07-25T01:15:16.971Z</time>
      </trkpt>
      <trkpt lat="42.96307" lon="-0.24111">
        <ele>1292.9</ele>
        <time>2024-07-25T01:15:24.883Z</time>
      </trkpt>
      <trkpt lat="42.96292" lon="-0.24123">
        <ele>1295.8</ele>
        <time>2024-07-25T01:15:35.045Z</time>
      </trkpt>
      <trkpt lat="42.96285" lon="-0.24131">
        <ele>1297.5</ele>
        <time>2024-07-25T01:15:40.792Z</time>
      </trkpt>
      <trkpt lat="42.96274" lon="-0.24149">
        <ele>1299.8</ele>
        <time>2024-07-25T01:15:49.676Z</time>
      </trkpt>
      <trkpt lat="42.96272" lon="-0.24157">
        <ele>1300.5</ele>
        <time>2024-07-25T01:15:52.647Z</time>
      </trkpt>
      <trkpt lat="42.96271" lon="-0.24179">
        <ele>1301.8</ele>
        <time>2024-07-25T01:15:59.566Z</time>
      </trkpt>
      <trkpt lat="42.96275" lon="-0.24198">
        <ele>1303.2</ele>
        <time>2024-07-25T01:16:06.127Z</time>
      </trkpt>
      <trkpt lat="42.96282" lon="-0.24216">
        <ele>1304.8</ele>
        <time>2024-07-25T01:16:13.144Z</time>
      </trkpt>
      <trkpt lat="42.96286" lon="-0.24223">
        <ele>1305.5</ele>
        <time>2024-07-25T01:16:16.206Z</time>
      </trkpt>
      <trkpt lat="42.96298" lon="-0.24233">
        <ele>1307.3</ele>
        <time>2024-07-25T01:16:23.326Z</time>
      </trkpt>
      <trkpt lat="42.96325" lon="-0.24237">
        <ele>1310.6</ele>
        <time>2024-07-25T01:16:36.765Z</time>
      </trkpt>
      <trkpt lat="42.96337" lon="-0.24243">
        <ele>1311.7</ele>
        <time>2024-07-25T01:16:42.349Z</time>
      </trkpt>
      <trkpt lat="42.96341" lon="-0.24248">
        <ele>1312.1</ele>
        <time>2024-07-25T01:16:44.621Z</time>
      </trkpt>
      <trkpt lat="42.96346" lon="-0.2426">
        <ele>1313.5</ele>
        <time>2024-07-25T01:16:49.939Z</time>
      </trkpt>
      <trkpt lat="42.96346" lon="-0.24283">
        <ele>1315.2</ele>
        <time>2024-07-25T01:16:57.685Z</time>
      </trkpt>
      <trkpt lat="42.96339" lon="-0.24299">
        <ele>1315.8</ele>
        <time>2024-07-25T01:17:02.865Z</time>
      </trkpt>
      <trkpt lat="42.96307" lon="-0.24345">
        <ele>1320.4</ele>
        <time>2024-07-25T01:17:24.093Z</time>
      </trkpt>
      <trkpt lat="42.96292" lon="-0.24377">
        <ele>1322.2</ele>
        <time>2024-07-25T01:17:35.400Z</time>
      </trkpt>
      <trkpt lat="42.96262" lon="-0.24452">
        <ele>1330.8</ele>
        <time>2024-07-25T01:18:08.192Z</time>
      </trkpt>
      <trkpt lat="42.9625" lon="-0.24474">
        <ele>1333.6</ele>
        <time>2024-07-25T01:18:18.794Z</time>
      </trkpt>
      <trkpt lat="42.96234" lon="-0.24493">
        <ele>1336.2</ele>
        <time>2024-07-25T01:18:29.326Z</time>
      </trkpt>
      <trkpt lat="42.9619" lon="-0.24534">
        <ele>1338.9</ele>
        <time>2024-07-25T01:18:49.997Z</time>
        <extensions>
          <visugpx:TrkExtension xmlns:visugpx="https://www.visugpx.com/editgpx/">
            <visugpx:node>36</visugpx:node>
            </visugpx:TrkExtension>
        </extensions>
      </trkpt>
      <trkpt lat="42.96141" lon="-0.24584">
        <ele>1343.6</ele>
        <time>2024-07-25T01:19:15.896Z</time>
      </trkpt>
      <trkpt lat="42.96129" lon="-0.24601">
        <ele>1345.1</ele>
        <time>2024-07-25T01:19:23.469Z</time>
      </trkpt>
      <trkpt lat="42.96124" lon="-0.24612">
        <ele>1346.3</ele>
        <time>2024-07-25T01:19:28.245Z</time>
      </trkpt>
      <trkpt lat="42.96093" lon="-0.24712">
        <ele>1353.9</ele>
        <time>2024-07-25T01:20:04.142Z</time>
      </trkpt>
      <trkpt lat="42.96083" lon="-0.24765">
        <ele>1357.6</ele>
        <time>2024-07-25T01:20:22.031Z</time>
      </trkpt>
      <trkpt lat="42.96079" lon="-0.24778">
        <ele>1358.5</ele>
        <time>2024-07-25T01:20:26.558Z</time>
      </trkpt>
      <trkpt lat="42.96059" lon="-0.24822">
        <ele>1362</ele>
        <time>2024-07-25T01:20:43.485Z</time>
      </trkpt>
      <trkpt lat="42.96031" lon="-0.24861">
        <ele>1365</ele>
        <time>2024-07-25T01:21:00.314Z</time>
      </trkpt>
      <trkpt lat="42.96026" lon="-0.24872">
        <ele>1366</ele>
        <time>2024-07-25T01:21:04.745Z</time>
      </trkpt>
      <trkpt lat="42.9601" lon="-0.24923">
        <ele>1370.1</ele>
        <time>2024-07-25T01:21:23.430Z</time>
      </trkpt>
      <trkpt lat="42.96005" lon="-0.2495">
        <ele>1371.7</ele>
        <time>2024-07-25T01:21:32.110Z</time>
      </trkpt>
      <trkpt lat="42.96005" lon="-0.24963">
        <ele>1372.4</ele>
        <time>2024-07-25T01:21:36.095Z</time>
      </trkpt>
      <trkpt lat="42.96008" lon="-0.24987">
        <ele>1374</ele>
        <time>2024-07-25T01:21:43.982Z</time>
      </trkpt>
      <trkpt lat="42.96015" lon="-0.2501">
        <ele>1375.8</ele>
        <time>2024-07-25T01:21:52.306Z</time>
      </trkpt>
      <trkpt lat="42.96023" lon="-0.25023">
        <ele>1377.8</ele>
        <time>2024-07-25T01:21:59.412Z</time>
      </trkpt>
      <trkpt lat="42.96028" lon="-0.25028">
        <ele>1379</ele>
        <time>2024-07-25T01:22:03.427Z</time>
      </trkpt>
      <trkpt lat="42.96034" lon="-0.25031">
        <ele>1379.5</ele>
        <time>2024-07-25T01:22:06.146Z</time>
      </trkpt>
      <trkpt lat="42.96082" lon="-0.25037">
        <ele>1383.9</ele>
        <time>2024-07-25T01:22:27.592Z</time>
      </trkpt>
      <trkpt lat="42.96098" lon="-0.25043">
        <ele>1385.2</ele>
        <time>2024-07-25T01:22:34.654Z</time>
      </trkpt>
      <trkpt lat="42.96104" lon="-0.25048">
        <ele>1385.6</ele>
        <time>2024-07-25T01:22:37.438Z</time>
      </trkpt>
      <trkpt lat="42.96109" lon="-0.25055">
        <ele>1385.7</ele>
        <time>2024-07-25T01:22:39.908Z</time>
      </trkpt>
      <trkpt lat="42.96115" lon="-0.2507">
        <ele>1387.9</ele>
        <time>2024-07-25T01:22:47.477Z</time>
      </trkpt>
      <trkpt lat="42.96116" lon="-0.25089">
        <ele>1389.6</ele>
        <time>2024-07-25T01:22:54.386Z</time>
      </trkpt>
      <trkpt lat="42.96114" lon="-0.25099">
        <ele>1390.2</ele>
        <time>2024-07-25T01:22:57.623Z</time>
      </trkpt>
      <trkpt lat="42.96099" lon="-0.25146">
        <ele>1393.3</ele>
        <time>2024-07-25T01:23:13.829Z</time>
      </trkpt>
      <trkpt lat="42.96095" lon="-0.25166">
        <ele>1394.6</ele>
        <time>2024-07-25T01:23:20.451Z</time>
      </trkpt>
      <trkpt lat="42.96096" lon="-0.25182">
        <ele>1396.2</ele>
        <time>2024-07-25T01:23:26.582Z</time>
      </trkpt>
      <trkpt lat="42.96099" lon="-0.25191">
        <ele>1397.5</ele>
        <time>2024-07-25T01:23:31.024Z</time>
      </trkpt>
      <trkpt lat="42.96121" lon="-0.25224">
        <ele>1401.7</ele>
        <time>2024-07-25T01:23:47.604Z</time>
      </trkpt>
      <trkpt lat="42.96124" lon="-0.25233">
        <ele>1402.1</ele>
        <time>2024-07-25T01:23:50.456Z</time>
      </trkpt>
      <trkpt lat="42.96125" lon="-0.25243">
        <ele>1402.1</ele>
        <time>2024-07-25T01:23:52.896Z</time>
      </trkpt>
      <trkpt lat="42.96116" lon="-0.25297">
        <ele>1406.5</ele>
        <time>2024-07-25T01:24:12.049Z</time>
      </trkpt>
      <trkpt lat="42.96117" lon="-0.25361">
        <ele>1412.1</ele>
        <time>2024-07-25T01:24:35.067Z</time>
      </trkpt>
      <trkpt lat="42.96115" lon="-0.25383">
        <ele>1414</ele>
        <time>2024-07-25T01:24:42.970Z</time>
        <extensions>
          <visugpx:TrkExtension xmlns:visugpx="https://www.visugpx.com/editgpx/">
            <visugpx:node>37</visugpx:node>
            </visugpx:TrkExtension>
        </extensions>
      </trkpt>
      <trkpt lat="42.96107" lon="-0.25398">
        <ele>1416</ele>
        <time>2024-07-25T01:24:50.350Z</time>
      </trkpt>
      <trkpt lat="42.96076" lon="-0.25418">
        <ele>1419</ele>
        <time>2024-07-25T01:25:05.406Z</time>
      </trkpt>
      <trkpt lat="42.96069" lon="-0.25424">
        <ele>1419.9</ele>
        <time>2024-07-25T01:25:09.316Z</time>
      </trkpt>
      <trkpt lat="42.96056" lon="-0.2544">
        <ele>1421.4</ele>
        <time>2024-07-25T01:25:16.953Z</time>
      </trkpt>
      <trkpt lat="42.96035" lon="-0.25476">
        <ele>1425.2</ele>
        <time>2024-07-25T01:25:33.114Z</time>
      </trkpt>
      <trkpt lat="42.96031" lon="-0.25488">
        <ele>1426.1</ele>
        <time>2024-07-25T01:25:37.437Z</time>
      </trkpt>
      <trkpt lat="42.96026" lon="-0.25516">
        <ele>1428</ele>
        <time>2024-07-25T01:25:46.783Z</time>
      </trkpt>
      <trkpt lat="42.96026" lon="-0.25545">
        <ele>1429.8</ele>
        <time>2024-07-25T01:25:56.018Z</time>
      </trkpt>
      <trkpt lat="42.96031" lon="-0.25571">
        <ele>1430.7</ele>
        <time>2024-07-25T01:26:03.532Z</time>
      </trkpt>
      <trkpt lat="42.96035" lon="-0.25581">
        <ele>1431.2</ele>
        <time>2024-07-25T01:26:06.869Z</time>
      </trkpt>
      <trkpt lat="42.96044" lon="-0.25593">
        <ele>1433.5</ele>
        <time>2024-07-25T01:26:14.685Z</time>
      </trkpt>
      <trkpt lat="42.96061" lon="-0.25606">
        <ele>1436.7</ele>
        <time>2024-07-25T01:26:25.964Z</time>
      </trkpt>
      <trkpt lat="42.96072" lon="-0.25619">
        <ele>1438.2</ele>
        <time>2024-07-25T01:26:32.708Z</time>
      </trkpt>
      <trkpt lat="42.96079" lon="-0.25634">
        <ele>1439.5</ele>
        <time>2024-07-25T01:26:38.675Z</time>
      </trkpt>
      <trkpt lat="42.96081" lon="-0.25653">
        <ele>1440.3</ele>
        <time>2024-07-25T01:26:44.241Z</time>
      </trkpt>
      <trkpt lat="42.96082" lon="-0.25685">
        <ele>1442.2</ele>
        <time>2024-07-25T01:26:54.311Z</time>
      </trkpt>
      <trkpt lat="42.96079" lon="-0.25746">
        <ele>1446.2</ele>
        <time>2024-07-25T01:27:14.089Z</time>
      </trkpt>
      <trkpt lat="42.96077" lon="-0.25761">
        <ele>1447.4</ele>
        <time>2024-07-25T01:27:19.343Z</time>
      </trkpt>
      <trkpt lat="42.96056" lon="-0.2586">
        <ele>1454</ele>
        <time>2024-07-25T01:27:52.470Z</time>
      </trkpt>
      <trkpt lat="42.96038" lon="-0.2591">
        <ele>1458.4</ele>
        <time>2024-07-25T01:28:11.696Z</time>
      </trkpt>
      <trkpt lat="42.96035" lon="-0.25923">
        <ele>1459.4</ele>
        <time>2024-07-25T01:28:16.275Z</time>
      </trkpt>
      <trkpt lat="42.96033" lon="-0.2595">
        <ele>1461.2</ele>
        <time>2024-07-25T01:28:25.091Z</time>
      </trkpt>
      <trkpt lat="42.96037" lon="-0.2598">
        <ele>1462.6</ele>
        <time>2024-07-25T01:28:34.104Z</time>
      </trkpt>
      <trkpt lat="42.96045" lon="-0.25998">
        <ele>1465.3</ele>
        <time>2024-07-25T01:28:43.405Z</time>
      </trkpt>
      <trkpt lat="42.96055" lon="-0.26015">
        <ele>1467.3</ele>
        <time>2024-07-25T01:28:51.411Z</time>
      </trkpt>
      <trkpt lat="42.9606" lon="-0.26031">
        <ele>1468.2</ele>
        <time>2024-07-25T01:28:56.692Z</time>
      </trkpt>
      <trkpt lat="42.9606" lon="-0.26088">
        <ele>1471.4</ele>
        <time>2024-07-25T01:29:14.350Z</time>
      </trkpt>
      <trkpt lat="42.96063" lon="-0.26125">
        <ele>1472.4</ele>
        <time>2024-07-25T01:29:24.454Z</time>
        <extensions>
          <visugpx:TrkExtension xmlns:visugpx="https://www.visugpx.com/editgpx/">
            <visugpx:node>38</visugpx:node>
            </visugpx:TrkExtension>
        </extensions>
      </trkpt>
    </trkseg>
  </trk>
</gpx>